Softwaredownloads

Ansicht
Bestell-Nr.
Artikel-Nr. Beschreibung
Software Version
Datum Info
1 8300-0-0004 83220 AP-624 Busch-WelcomePanel® - Innenstation Video mit 17,8 cm (7") Touch-Display Firmware 2.24 16.01.2017
2 8300-0-0005 83220 AP-681 Busch-WelcomePanel® - Innenstation Video mit 17,8 cm (7") Touch-Display Firmware 2.24 16.01.2017
3 8300-0-0006 83220 AP-683 Busch-WelcomePanel® - Innenstation Video mit 17,8 cm (7") Touch-Display Firmware 2.24 16.01.2017
4 6220-0-0031 6200 AP System Access Point - für Busch-free@home® Firmware: System Access Point 2.1.1 06.01.2017
5 6220-0-0031 6200 AP System Access Point - für Busch-free@home® Release Notes 2.1.1 06.01.2017
6 6200-0-0071 6200 AP-101 System Access Point - für Busch-free@home® Firmware: System Access Point 2.1.1 06.01.2017
7 6200-0-0071 6200 AP-101 System Access Point - für Busch-free@home® Release Notes 2.1.1 06.01.2017
8 6190-0-0044 6190/10-101 Wetterzentrale ETS4/ETS5 Applikation 1.2 13.12.2016
9 6134-0-0314 6109/18 Raumtemperaturregler mit Universaleingang 5-fach - Heiz-/Kühlbetrieb ETS4/ETS5 Applikation 1.0 12.12.2016
10 6134-0-0316 6109/28 Raumtemperaturregler mit CO2/Feuchte-Sensor - Heiz-/Kühlbetrieb ETS4/ETS5 Applikation 1.0 12.12.2016
11 6151-0-0253 6155/30 LED-Dimmer Konstantspannung - 1-4-fach ETS4/ETS5 Applikation 1.0 30.08.2016
12 6151-0-0255 6155/40 LED-Dimmer Konstantspannung mit integriertem Netzteil. - 1-4-fach ETS4/ETS5 Applikation 1.0 30.08.2016
13 6198-0-0109 6198/11 Logikmodul ETS4/ETS5 Applikation 2.2 26.08.2016
14 6134-0-0321 6128/28-81 Bedienelement 2/4-fach, mit RTR future® linear - Multifunktion/Farbkonzept ETS3 Applikation: PowerTool 18.08.2016
15 6134-0-0321 6128/28-81 Bedienelement 2/4-fach, mit RTR future® linear - Multifunktion/Farbkonzept ETS3 Applikation: PowerTool 18.08.2016
16 6134-0-0323 6128/28-83 Bedienelement 2/4-fach, mit RTR future® linear - Multifunktion/Farbkonzept ETS3 Applikation: PowerTool 18.08.2016
17 6134-0-0323 6128/28-83 Bedienelement 2/4-fach, mit RTR future® linear - Multifunktion/Farbkonzept ETS3 Applikation: PowerTool 18.08.2016
18 6134-0-0324 6128/28-84 Bedienelement 2/4-fach, mit RTR future® linear - Multifunktion/Farbkonzept ETS3 Applikation: PowerTool 18.08.2016
19 6134-0-0324 6128/28-84 Bedienelement 2/4-fach, mit RTR future® linear - Multifunktion/Farbkonzept ETS3 Applikation: PowerTool 18.08.2016
20 6134-0-0328 6128/28-884 Bedienelement 2/4-fach, mit RTR future® linear - Multifunktion/Farbkonzept ETS3 Applikation: PowerTool 18.08.2016
21 6134-0-0328 6128/28-884 Bedienelement 2/4-fach, mit RTR future® linear - Multifunktion/Farbkonzept ETS3 Applikation: PowerTool 18.08.2016
22 6134-0-0329 6128/28-885 Bedienelement 2/4-fach, mit RTR future® linear - Multifunktion/Farbkonzept ETS3 Applikation: PowerTool 18.08.2016
23 6134-0-0329 6128/28-885 Bedienelement 2/4-fach, mit RTR future® linear - Multifunktion/Farbkonzept ETS3 Applikation: PowerTool 18.08.2016
24 6134-0-0326 6128/28-803 Bedienelement 2/4-fach, mit RTR solo® - Multifunktion/Farbkonzept ETS3 Applikation: PowerTool 18.08.2016
25 6134-0-0326 6128/28-803 Bedienelement 2/4-fach, mit RTR solo® - Multifunktion/Farbkonzept ETS3 Applikation: PowerTool 18.08.2016
26 6134-0-0330 6128/28-896 Bedienelement 2/4-fach, mit RTR Busch-axcent® - Multifunktion/Farbkonzept ETS3 Applikation: PowerTool 18.08.2016
27 6134-0-0330 6128/28-896 Bedienelement 2/4-fach, mit RTR Busch-axcent® - Multifunktion/Farbkonzept ETS3 Applikation: PowerTool 18.08.2016
28 6134-0-0325 6128/28-866 Bedienelement 2/4-fach, mit RTR pur edelstahl - Multifunktion/Farbkonzept ETS3 Applikation: PowerTool 18.08.2016
29 6134-0-0325 6128/28-866 Bedienelement 2/4-fach, mit RTR pur edelstahl - Multifunktion/Farbkonzept ETS3 Applikation: PowerTool 18.08.2016
30 6180-0-0026 6180/16 KNX-Spannungsversorgung 320 mA ETS3 Applikation 1.1 18.08.2016
31 6180-0-0026 6180/16 KNX-Spannungsversorgung 320 mA ETS4/ETS5 Applikation 1.1 18.08.2016
32 6180-0-0027 6180/17 KNX-Spannungsversorgung 640 mA ETS3 Applikation 1.1 18.08.2016
33 6180-0-0027 6180/17 KNX-Spannungsversorgung 640 mA ETS4/ETS5 Applikation 1.1 18.08.2016
34 6180-0-0023 6180/11 Unterbrechungsfreie KNX-Spannungsversorgung 640 mA - SELV ETS3 Applikation 1.1 18.08.2016
35 6180-0-0025 6180/15 KNX-Spannungsversorgung 160 mA ETS3 Applikation 1.1 18.08.2016
36 6180-0-0025 6180/15 KNX-Spannungsversorgung 160 mA ETS4/ETS5 Applikation 1.1 18.08.2016
37 6180-0-0028 6180/18 KNX-Spannungsversorgung 320 mA, premium ETS4/ETS5 Applikation 1.1 18.08.2016
38 6180-0-0028 6180/18 KNX-Spannungsversorgung 320 mA, premium ETS3 Applikation 1.1 18.08.2016
39 6180-0-0029 6180/19 KNX-Spannungsversorgung 640 mA, premium ETS4/ETS5 Applikation 1.1 18.08.2016
40 6180-0-0029 6180/19 KNX-Spannungsversorgung 640 mA, premium ETS3 Applikation 1.1 18.08.2016
41 6132-0-0332 6131/21-183 Busch-Präsenzmelder Mini Premium KNX - 8 Meter ETS4/ETS5 Applikation 3.2 20.07.2016 Info
42 6132-0-0331 6131/21-24 Busch-Präsenzmelder Mini Premium KNX - 8 Meter ETS4/ETS5 Applikation 3.2 20.07.2016 Info
43 6132-0-0336 6131/31-183 Busch-Präsenzmelder Premium KNX - 12 Meter ETS4/ETS5 Applikation 3.2 20.07.2016 Info
44 6132-0-0335 6131/31-24 Busch-Präsenzmelder Premium KNX - 12 Meter ETS4/ETS5 Applikation 3.2 20.07.2016 Info
45 6132-0-0330 6131/20-183 Busch-Präsenzmelder Mini KNX - 8 Meter Firmware 1.4 06.07.2016
46 6132-0-0329 6131/20-24 Busch-Präsenzmelder Mini KNX - 8 Meter Firmware 1.4 06.07.2016
47 6132-0-0332 6131/21-183 Busch-Präsenzmelder Mini Premium KNX - 8 Meter Firmware 1.4 06.07.2016
48 6132-0-0331 6131/21-24 Busch-Präsenzmelder Mini Premium KNX - 8 Meter Firmware 1.4 06.07.2016
49 6132-0-0334 6131/30-183 Busch-Präsenzmelder KNX - 12 Meter Firmware 1.4 06.07.2016
50 6132-0-0333 6131/30-24 Busch-Präsenzmelder KNX - 12 Meter Firmware 1.4 06.07.2016
51 6132-0-0336 6131/31-183 Busch-Präsenzmelder Premium KNX - 12 Meter Firmware 1.4 06.07.2016
52 6132-0-0335 6131/31-24 Busch-Präsenzmelder Premium KNX - 12 Meter Firmware 1.4 06.07.2016
53 6132-0-0337 6131/40-24 Busch-Wächter® Sky KNX - 24 Meter Firmware 1.4 06.07.2016
54 6115-0-0193 6125/02-81 Bedienelement, 1/2-fach - Multifunktion/Farbkonzept Zusatzsoftware: PowerTool 05.07.2016 Info
55 6115-0-0193 6125/02-81 Bedienelement, 1/2-fach - Multifunktion/Farbkonzept ETS4/ETS5 Applikation 1.0 05.07.2016 Info
56 6115-0-0194 6125/02-82 Bedienelement, 1/2-fach - Multifunktion/Farbkonzept Zusatzsoftware: PowerTool 05.07.2016 Info
57 6115-0-0194 6125/02-82 Bedienelement, 1/2-fach - Multifunktion/Farbkonzept ETS4/ETS5 Applikation 1.0 05.07.2016 Info
58 6116-0-0183 6126/02-81 Bedienelement, 2/4-fach - Multifunktion/Farbkonzept Zusatzsoftware: PowerTool 05.07.2016 Info
59 6116-0-0183 6126/02-81 Bedienelement, 2/4-fach - Multifunktion/Farbkonzept ETS4/ETS5 Applikation 1.0 05.07.2016 Info
60 6116-0-0184 6126/02-82 Bedienelement, 2/4-fach - Multifunktion/Farbkonzept Zusatzsoftware: PowerTool 05.07.2016 Info
61 6116-0-0184 6126/02-82 Bedienelement, 2/4-fach - Multifunktion/Farbkonzept ETS4/ETS5 Applikation 1.0 05.07.2016 Info
62 6134-0-0257 6128/01-81 Bedienelement 2/4-fach, mit RTR - Multifunktion/Farbkonzept Zusatzsoftware: PowerTool 05.07.2016 Info
63 6134-0-0258 6128/01-82 Bedienelement 2/4-fach, mit RTR - Multifunktion/Farbkonzept Zusatzsoftware: PowerTool 05.07.2016 Info
64 6117-0-0209 6127/02-81 Bedienelement, 4/8-fach - Multifunktion/Farbkonzept Zusatzsoftware: PowerTool 05.07.2016 Info
65 6117-0-0209 6127/02-81 Bedienelement, 4/8-fach - Multifunktion/Farbkonzept ETS4/ETS5 Applikation 1.0 05.07.2016 Info
66 6117-0-0210 6127/02-82 Bedienelement, 4/8-fach - Multifunktion/Farbkonzept Zusatzsoftware: PowerTool 05.07.2016 Info
67 6117-0-0210 6127/02-82 Bedienelement, 4/8-fach - Multifunktion/Farbkonzept ETS4/ETS5 Applikation 1.0 05.07.2016 Info
68 6132-0-0330 6131/20-183 Busch-Präsenzmelder Mini KNX - 8 Meter Zusatzsoftware 05.07.2016 Info
69 6132-0-0329 6131/20-24 Busch-Präsenzmelder Mini KNX - 8 Meter Zusatzsoftware 05.07.2016 Info
70 6132-0-0332 6131/21-183 Busch-Präsenzmelder Mini Premium KNX - 8 Meter Zusatzsoftware 05.07.2016 Info
71 6132-0-0331 6131/21-24 Busch-Präsenzmelder Mini Premium KNX - 8 Meter Zusatzsoftware 05.07.2016 Info
72 6132-0-0334 6131/30-183 Busch-Präsenzmelder KNX - 12 Meter Zusatzsoftware 05.07.2016 Info
73 6132-0-0333 6131/30-24 Busch-Präsenzmelder KNX - 12 Meter Zusatzsoftware 05.07.2016 Info
74 6132-0-0336 6131/31-183 Busch-Präsenzmelder Premium KNX - 12 Meter Zusatzsoftware 05.07.2016 Info
75 6132-0-0335 6131/31-24 Busch-Präsenzmelder Premium KNX - 12 Meter Zusatzsoftware 05.07.2016 Info
76 6132-0-0337 6131/40-24 Busch-Wächter® Sky KNX - 24 Meter Zusatzsoftware 05.07.2016 Info
77 6310-0-0129 6344-24G-101 8,89 cm TFT-Farbdisplay mit Drehbedienelement - Busch-priOn® Zusatzsoftware: PowerTool 05.07.2016 Info
78 6310-0-0129 6344-24G-101 8,89 cm TFT-Farbdisplay mit Drehbedienelement - Busch-priOn® ETS-Applikation für PowerTool 2.0 05.07.2016 Info
79 6310-0-0129 6344-24G-101 8,89 cm TFT-Farbdisplay mit Drehbedienelement - Busch-priOn® Firmware: Update Firmware 6344-xxx 0.1.6.11 05.07.2016 Info
80 6310-0-0173 6344-811-101 8,89 cm TFT-Farbdisplay mit Drehbedienelement - Busch-priOn® Zusatzsoftware: PowerTool 05.07.2016 Info
81 6310-0-0173 6344-811-101 8,89 cm TFT-Farbdisplay mit Drehbedienelement - Busch-priOn® ETS-Applikation für PowerTool 2.0 05.07.2016 Info
82 6310-0-0173 6344-811-101 8,89 cm TFT-Farbdisplay mit Drehbedienelement - Busch-priOn® Firmware: Update Firmware 6344-xxx 0.1.6.11 05.07.2016 Info
83 6310-0-0128 6344-825-101 8,89 cm TFT-Farbdisplay mit Drehbedienelement - Busch-priOn® Zusatzsoftware: PowerTool 05.07.2016 Info
84 6310-0-0128 6344-825-101 8,89 cm TFT-Farbdisplay mit Drehbedienelement - Busch-priOn® ETS-Applikation für PowerTool 2.0 05.07.2016 Info
85 6310-0-0128 6344-825-101 8,89 cm TFT-Farbdisplay mit Drehbedienelement - Busch-priOn® Firmware: Update Firmware 6344-xxx 0.1.6.11 05.07.2016 Info
86 6310-0-0126 6344-866-101 8,89 cm TFT-Farbdisplay mit Drehbedienelement - Busch-priOn® Zusatzsoftware: PowerTool 05.07.2016 Info
87 6310-0-0126 6344-866-101 8,89 cm TFT-Farbdisplay mit Drehbedienelement - Busch-priOn® ETS-Applikation für PowerTool 2.0 05.07.2016 Info
88 6310-0-0126 6344-866-101 8,89 cm TFT-Farbdisplay mit Drehbedienelement - Busch-priOn® Firmware: Update Firmware 6344-xxx 0.1.6.11 05.07.2016 Info
89 6310-0-0121 6342-24G-101 Bedienelement 3-fach - Busch-priOn® Zusatzsoftware: PowerTool 05.07.2016 Info
90 6310-0-0171 6342-811-101 Bedienelement 3-fach - Busch-priOn® Zusatzsoftware: PowerTool 05.07.2016 Info
91 6310-0-0120 6342-825-101 Bedienelement 3-fach - Busch-priOn® Zusatzsoftware: PowerTool 05.07.2016 Info
92 6310-0-0118 6342-866-101 Bedienelement 3-fach - Busch-priOn® Zusatzsoftware: PowerTool 05.07.2016 Info
93 6310-0-0105 6340-24G-101 Bedienelement 1-fach - Busch-priOn® Zusatzsoftware: PowerTool 05.07.2016 Info
94 6310-0-0167 6340-811-101 Bedienelement 1-fach - Busch-priOn® Zusatzsoftware: PowerTool 05.07.2016 Info
95 6310-0-0104 6340-825-101 Bedienelement 1-fach - Busch-priOn® Zusatzsoftware: PowerTool 05.07.2016 Info
96 6310-0-0102 6340-866-101 Bedienelement 1-fach - Busch-priOn® Zusatzsoftware: PowerTool 05.07.2016 Info
97 6310-0-0113 6341-24G-101 Drehbedienelement 1-fach - Busch-priOn® Zusatzsoftware: PowerTool 05.07.2016 Info
98 6310-0-0169 6341-811-101 Drehbedienelement 1-fach - Busch-priOn® Zusatzsoftware: PowerTool 05.07.2016 Info
99 6310-0-0112 6341-825-101 Drehbedienelement 1-fach - Busch-priOn® Zusatzsoftware: PowerTool 05.07.2016 Info
100 6310-0-0110 6341-866-101 Drehbedienelement 1-fach - Busch-priOn® Zusatzsoftware: PowerTool 05.07.2016 Info
101 6310-0-0020 6345-24G-101 Busch-Wächter® 180 UP - Busch-priOn® Zusatzsoftware: PowerTool 05.07.2016 Info
102 6310-0-0175 6345-811-101 Busch-Wächter® 180 UP - Busch-priOn® Zusatzsoftware: PowerTool 05.07.2016 Info
103 6310-0-0019 6345-825-101 Busch-Wächter® 180 UP - Busch-priOn® Zusatzsoftware: PowerTool 05.07.2016 Info
104 6310-0-0017 6345-866-101 Busch-Wächter® 180 UP - Busch-priOn® Zusatzsoftware: PowerTool 05.07.2016 Info
105 6310-0-0156 6350-825-101 Abschlussleiste oben mit IR-Empfänger und Näherungssensor - Busch-priOn® Zusatzsoftware: PowerTool 05.07.2016 Info
106 6310-0-0184 6351/08-825 Abschlussleiste oben mit Infodisplay, RTR, IR-Empfänger und Näherungssensor - Busch-priOn® Zusatzsoftware: PowerTool 05.07.2016 Info
107 6310-0-0184 6351/08-825 Abschlussleiste oben mit Infodisplay, RTR, IR-Empfänger und Näherungssensor - Busch-priOn® Firmware 1.2.04 05.07.2016 Info
108 6310-0-0143 6348-24G-101 Standardabschlussleiste oben - Busch-priOn® Zusatzsoftware: PowerTool 05.07.2016 Info
109 6310-0-0177 6348-811-101 Standardabschlussleiste oben - Busch-priOn® Zusatzsoftware: PowerTool 05.07.2016 Info
110 6310-0-0142 6348-825-101 Standardabschlussleiste oben - Busch-priOn® Zusatzsoftware: PowerTool 05.07.2016 Info
111 6310-0-0140 6348-860-101 Standardabschlussleiste oben - Busch-priOn® Zusatzsoftware: PowerTool 05.07.2016 Info
112 6310-0-0151 6349-24G-101 Standardabschlussleiste unten mit Schriftzug - Busch-priOn® Zusatzsoftware: PowerTool 05.07.2016 Info
113 6310-0-0179 6349-811-101 Standardabschlussleiste unten mit Schriftzug - Busch-priOn® Zusatzsoftware: PowerTool 05.07.2016 Info
114 6310-0-0150 6349-825-101 Standardabschlussleiste unten mit Schriftzug - Busch-priOn® Zusatzsoftware: PowerTool 05.07.2016 Info
115 6310-0-0148 6349-860-101 Standardabschlussleiste unten mit Schriftzug - Busch-priOn® Zusatzsoftware: PowerTool 05.07.2016 Info
116 6310-0-0134 6346/10-101 Grundträger, 1-fach - Busch-priOn® Zusatzsoftware: PowerTool 05.07.2016 Info
117 6310-0-0136 6346/11-101 Grundträger, 2-fach - Busch-priOn® Zusatzsoftware: PowerTool 05.07.2016 Info
118 6310-0-0138 6346/12-101 Grundträger, 3-fach - Busch-priOn® Zusatzsoftware: PowerTool 05.07.2016 Info
119 6310-0-0161 6352-24G-101 Abschlussleiste unten mit Temperaturfühler und Schriftzug - Busch-priOn® Zusatzsoftware: PowerTool 05.07.2016 Info
120 6310-0-0181 6352-811-101 Abschlussleiste unten mit Temperaturfühler und Schriftzug - Busch-priOn® Zusatzsoftware: PowerTool 05.07.2016 Info
121 6310-0-0160 6352-825-101 Abschlussleiste unten mit Temperaturfühler und Schriftzug - Busch-priOn® Zusatzsoftware: PowerTool 05.07.2016 Info
122 6310-0-0158 6352-860-101 Abschlussleiste unten mit Temperaturfühler und Schriftzug - Busch-priOn® Zusatzsoftware: PowerTool 05.07.2016 Info
123 6310-0-0054 6354 U Schaltaktor 1-fach, UP - Busch-priOn® Zusatzsoftware: PowerTool 05.07.2016 Info
124 6310-0-0055 6355 U Universal-Dimmaktor 1-fach, UP - Busch-priOn® Zusatzsoftware: PowerTool 05.07.2016 Info
125 6310-0-0056 6356 U Serien-/Jalousieaktor 2/1-fach, UP - Busch-priOn® Zusatzsoftware: PowerTool 05.07.2016 Info
126 6310-0-0050 6353/20-860 Beschriftungssymbol Beleuchtung Zusatzsoftware: PowerTool 05.07.2016 Info
127 6310-0-0051 6353/30-860 Beschriftungssymbol Jalousie Zusatzsoftware: PowerTool 05.07.2016 Info
128 6310-0-0052 6353/40-860 Beschriftungssymbol Raumtemperatur Zusatzsoftware: PowerTool 05.07.2016 Info
129 6310-0-0053 6353/50-860 Beschriftungssymbol Szene Zusatzsoftware: PowerTool 05.07.2016 Info
130 6115-0-0195 6125/02-83 Bedienelement, 1/2-fach future® linear - Multifunktion/Farbkonzept Zusatzsoftware: PowerTool 05.07.2016 Info
131 6115-0-0195 6125/02-83 Bedienelement, 1/2-fach future® linear - Multifunktion/Farbkonzept ETS4/ETS5 Applikation 1.0 05.07.2016 Info
132 6115-0-0196 6125/02-84 Bedienelement, 1/2-fach future® linear - Multifunktion/Farbkonzept Zusatzsoftware: PowerTool 05.07.2016 Info
133 6115-0-0196 6125/02-84 Bedienelement, 1/2-fach future® linear - Multifunktion/Farbkonzept ETS4/ETS5 Applikation 1.0 05.07.2016 Info
134 6115-0-0203 6125/02-884 Bedienelement, 1/2-fach future® linear - Multifunktion/Farbkonzept Zusatzsoftware: PowerTool 05.07.2016 Info
135 6115-0-0203 6125/02-884 Bedienelement, 1/2-fach future® linear - Multifunktion/Farbkonzept ETS4/ETS5 Applikation 1.0 05.07.2016 Info
136 6115-0-0204 6125/02-885 Bedienelement, 1/2-fach future® linear - Multifunktion/Farbkonzept Zusatzsoftware: PowerTool 05.07.2016 Info
137 6115-0-0204 6125/02-885 Bedienelement, 1/2-fach future® linear - Multifunktion/Farbkonzept ETS4/ETS5 Applikation 1.0 05.07.2016 Info
138 6115-0-0201 6125/02-803 Bedienelement, 1/2-fach solo® - Multifunktion/Farbkonzept Zusatzsoftware: PowerTool 05.07.2016 Info
139 6115-0-0201 6125/02-803 Bedienelement, 1/2-fach solo® - Multifunktion/Farbkonzept ETS4/ETS5 Applikation 1.0 05.07.2016 Info
140 6115-0-0450 6125/02-896 Bedienelement, 1/2-fach Busch-axcent® - Multifunktion/Farbkonzept Zusatzsoftware: PowerTool 05.07.2016 Info
141 6115-0-0450 6125/02-896 Bedienelement, 1/2-fach Busch-axcent® - Multifunktion/Farbkonzept ETS4/ETS5 Applikation 1.0 05.07.2016 Info
142 6115-0-0200 6125/02-866 Bedienelement, 1/2-fach pur edelstahl - Multifunktion/Farbkonzept Zusatzsoftware: PowerTool 05.07.2016 Info
143 6115-0-0200 6125/02-866 Bedienelement, 1/2-fach pur edelstahl - Multifunktion/Farbkonzept ETS4/ETS5 Applikation 1.0 05.07.2016 Info
144 6116-0-0185 6126/02-83 Bedienelement, 2/4-fach future® linear - Multifunktion/Farbkonzept Zusatzsoftware: PowerTool 05.07.2016 Info
145 6116-0-0185 6126/02-83 Bedienelement, 2/4-fach future® linear - Multifunktion/Farbkonzept ETS4/ETS5 Applikation 1.0 05.07.2016 Info
146 6116-0-0186 6126/02-84 Bedienelement, 2/4-fach future® linear - Multifunktion/Farbkonzept Zusatzsoftware: PowerTool 05.07.2016 Info
147 6116-0-0186 6126/02-84 Bedienelement, 2/4-fach future® linear - Multifunktion/Farbkonzept ETS4/ETS5 Applikation 1.0 05.07.2016 Info
148 6116-0-0193 6126/02-884 Bedienelement, 2/4-fach future® linear - Multifunktion/Farbkonzept Zusatzsoftware: PowerTool 05.07.2016 Info
149 6116-0-0193 6126/02-884 Bedienelement, 2/4-fach future® linear - Multifunktion/Farbkonzept ETS4/ETS5 Applikation 1.0 05.07.2016 Info
150 6116-0-0194 6126/02-885 Bedienelement, 2/4-fach future® linear - Multifunktion/Farbkonzept Zusatzsoftware: PowerTool 05.07.2016 Info
151 6116-0-0194 6126/02-885 Bedienelement, 2/4-fach future® linear - Multifunktion/Farbkonzept ETS4/ETS5 Applikation 1.0 05.07.2016 Info
152 6116-0-0191 6126/02-803 Bedienelement, 2/4-fach solo® - Multifunktion/Farbkonzept Zusatzsoftware: PowerTool 05.07.2016 Info
153 6116-0-0191 6126/02-803 Bedienelement, 2/4-fach solo® - Multifunktion/Farbkonzept ETS4/ETS5 Applikation 1.0 05.07.2016 Info
154 6116-0-0225 6126/02-896 Bedienelement, 2/4-fach Busch-axcent® - Multifunktion/Farbkonzept Zusatzsoftware: PowerTool 05.07.2016 Info
155 6116-0-0225 6126/02-896 Bedienelement, 2/4-fach Busch-axcent® - Multifunktion/Farbkonzept ETS4/ETS5 Applikation 1.0 05.07.2016 Info
156 6116-0-0190 6126/02-866 Bedienelement, 2/4-fach pur edelstahl - Multifunktion/Farbkonzept Zusatzsoftware: PowerTool 05.07.2016 Info
157 6116-0-0190 6126/02-866 Bedienelement, 2/4-fach pur edelstahl - Multifunktion/Farbkonzept ETS4/ETS5 Applikation 1.0 05.07.2016 Info
158 6134-0-0259 6128/01-83 Bedienelement 2/4-fach, mit RTR future® linear - Multifunktion/Farbkonzept Zusatzsoftware: PowerTool 05.07.2016 Info
159 6134-0-0260 6128/01-84 Bedienelement 2/4-fach, mit RTR future® linear - Multifunktion/Farbkonzept Zusatzsoftware: PowerTool 05.07.2016 Info
160 6134-0-0268 6128/01-884 Bedienelement 2/4-fach, mit RTR future® linear - Multifunktion/Farbkonzept Zusatzsoftware: PowerTool 05.07.2016 Info
161 6134-0-0269 6128/01-885 Bedienelement 2/4-fach, mit RTR future® linear - Multifunktion/Farbkonzept Zusatzsoftware: PowerTool 05.07.2016 Info
162 6134-0-0266 6128/01-803 Bedienelement 2/4-fach, mit RTR solo® - Multifunktion/Farbkonzept Zusatzsoftware: PowerTool 05.07.2016 Info
163 6134-0-0305 6128/01-896 Bedienelement 2/4-fach, mit RTR Busch-axcent® - Multifunktion/Farbkonzept Zusatzsoftware: PowerTool 05.07.2016 Info
164 6134-0-0265 6128/01-866 Bedienelement 2/4-fach, mit RTR pur edelstahl - Multifunktion/Farbkonzept Zusatzsoftware: PowerTool 05.07.2016 Info
165 6135-0-0142 6129/01-81 Bedienelement 3/6-fach, mit IR-Schnittstelle future® linear - Multifunktion/Farbkonzept Zusatzsoftware: PowerTool 05.07.2016 Info
166 6135-0-0142 6129/01-81 Bedienelement 3/6-fach, mit IR-Schnittstelle future® linear - Multifunktion/Farbkonzept ETS4/ETS5 Applikation 1.0 05.07.2016 Info
167 6135-0-0143 6129/01-82 Bedienelement 3/6-fach, mit IR-Schnittstelle future® linear - Multifunktion/Farbkonzept Zusatzsoftware: PowerTool 05.07.2016 Info
168 6135-0-0143 6129/01-82 Bedienelement 3/6-fach, mit IR-Schnittstelle future® linear - Multifunktion/Farbkonzept ETS4/ETS5 Applikation 1.0 05.07.2016 Info
169 6135-0-0144 6129/01-83 Bedienelement 3/6-fach, mit IR-Schnittstelle future® linear - Multifunktion/Farbkonzept Zusatzsoftware: PowerTool 05.07.2016 Info
170 6135-0-0144 6129/01-83 Bedienelement 3/6-fach, mit IR-Schnittstelle future® linear - Multifunktion/Farbkonzept ETS4/ETS5 Applikation 1.0 05.07.2016 Info
171 6135-0-0145 6129/01-84 Bedienelement 3/6-fach, mit IR-Schnittstelle future® linear - Multifunktion/Farbkonzept Zusatzsoftware: PowerTool 05.07.2016 Info
172 6135-0-0145 6129/01-84 Bedienelement 3/6-fach, mit IR-Schnittstelle future® linear - Multifunktion/Farbkonzept ETS4/ETS5 Applikation 1.0 05.07.2016 Info
173 6135-0-0153 6129/01-884 Bedienelement 3/6-fach, mit IR-Schnittstelle future® linear - Multifunktion/Farbkonzept Zusatzsoftware: PowerTool 05.07.2016 Info
174 6135-0-0153 6129/01-884 Bedienelement 3/6-fach, mit IR-Schnittstelle future® linear - Multifunktion/Farbkonzept ETS4/ETS5 Applikation 1.0 05.07.2016 Info
175 6135-0-0154 6129/01-885 Bedienelement 3/6-fach, mit IR-Schnittstelle future® linear - Multifunktion/Farbkonzept Zusatzsoftware: PowerTool 05.07.2016 Info
176 6135-0-0154 6129/01-885 Bedienelement 3/6-fach, mit IR-Schnittstelle future® linear - Multifunktion/Farbkonzept ETS4/ETS5 Applikation 1.0 05.07.2016 Info
177 6135-0-0151 6129/01-803 Bedienelement 3/6-fach, mit IR-Schnittstelle solo® - Multifunktion/Farbkonzept Zusatzsoftware: PowerTool 05.07.2016 Info
178 6135-0-0151 6129/01-803 Bedienelement 3/6-fach, mit IR-Schnittstelle solo® - Multifunktion/Farbkonzept ETS4/ETS5 Applikation 1.0 05.07.2016 Info
179 6135-0-0169 6129/01-896 Bedienelement 3/6-fach, mit IR-Schnittstelle Busch-axcent® - Multifunktion/Farbkonzept Zusatzsoftware: PowerTool 05.07.2016 Info
180 6135-0-0169 6129/01-896 Bedienelement 3/6-fach, mit IR-Schnittstelle Busch-axcent® - Multifunktion/Farbkonzept ETS4/ETS5 Applikation 1.0 05.07.2016 Info
181 6135-0-0150 6129/01-866 Bedienelement 3/6-fach, mit IR-Schnittstelle pur edelstahl - Multifunktion/Farbkonzept Zusatzsoftware: PowerTool 05.07.2016 Info
182 6135-0-0150 6129/01-866 Bedienelement 3/6-fach, mit IR-Schnittstelle pur edelstahl - Multifunktion/Farbkonzept ETS4/ETS5 Applikation 1.0 05.07.2016 Info
183 6117-0-0211 6127/02-83 Bedienelement, 4/8-fach future® linear - Multifunktion/Farbkonzept Zusatzsoftware: PowerTool 05.07.2016 Info
184 6117-0-0211 6127/02-83 Bedienelement, 4/8-fach future® linear - Multifunktion/Farbkonzept ETS4/ETS5 Applikation 1.0 05.07.2016 Info
185 6117-0-0212 6127/02-84 Bedienelement, 4/8-fach future® linear - Multifunktion/Farbkonzept Zusatzsoftware: PowerTool 05.07.2016 Info
186 6117-0-0212 6127/02-84 Bedienelement, 4/8-fach future® linear - Multifunktion/Farbkonzept ETS4/ETS5 Applikation 1.0 05.07.2016 Info
187 6117-0-0219 6127/02-884 Bedienelement, 4/8-fach future® linear - Multifunktion/Farbkonzept Zusatzsoftware: PowerTool 05.07.2016 Info
188 6117-0-0219 6127/02-884 Bedienelement, 4/8-fach future® linear - Multifunktion/Farbkonzept ETS4/ETS5 Applikation 1.0 05.07.2016 Info
189 6117-0-0220 6127/02-885 Bedienelement, 4/8-fach future® linear - Multifunktion/Farbkonzept Zusatzsoftware: PowerTool 05.07.2016 Info
190 6117-0-0220 6127/02-885 Bedienelement, 4/8-fach future® linear - Multifunktion/Farbkonzept ETS4/ETS5 Applikation 1.0 05.07.2016 Info
191 6117-0-0217 6127/02-803 Bedienelement, 4/8-fach solo® - Multifunktion/Farbkonzept Zusatzsoftware: PowerTool 05.07.2016 Info
192 6117-0-0217 6127/02-803 Bedienelement, 4/8-fach solo® - Multifunktion/Farbkonzept ETS4/ETS5 Applikation 1.0 05.07.2016 Info
193 6117-0-0250 6127/02-896 Bedienelement, 4/8-fach Busch-axcent® - Multifunktion/Farbkonzept Zusatzsoftware: PowerTool 05.07.2016 Info
194 6117-0-0250 6127/02-896 Bedienelement, 4/8-fach Busch-axcent® - Multifunktion/Farbkonzept ETS4/ETS5 Applikation 1.0 05.07.2016 Info
195 6117-0-0216 6127/02-866 Bedienelement, 4/8-fach pur edelstahl - Multifunktion/Farbkonzept Zusatzsoftware: PowerTool 05.07.2016 Info
196 6117-0-0216 6127/02-866 Bedienelement, 4/8-fach pur edelstahl - Multifunktion/Farbkonzept ETS4/ETS5 Applikation 1.0 05.07.2016 Info
197 6134-0-0244 6124/01-81 Raumtemperaturregler future® linear - Heiz-/Kühlbetrieb/Farbkonzept Zusatzsoftware: PowerTool 05.07.2016 Info
198 6134-0-0245 6124/01-82 Raumtemperaturregler future® linear - Heiz-/Kühlbetrieb/Farbkonzept Zusatzsoftware: PowerTool 05.07.2016 Info
199 6134-0-0246 6124/01-83 Raumtemperaturregler future® linear - Heiz-/Kühlbetrieb/Farbkonzept Zusatzsoftware: PowerTool 05.07.2016 Info
200 6134-0-0247 6124/01-84 Raumtemperaturregler future® linear - Heiz-/Kühlbetrieb/Farbkonzept Zusatzsoftware: PowerTool 05.07.2016 Info
201 6134-0-0255 6124/01-884 Raumtemperaturregler future® linear - Heiz-/Kühlbetrieb/Farbkonzept Zusatzsoftware: PowerTool 05.07.2016 Info
202 6134-0-0256 6124/01-885 Raumtemperaturregler future® linear - Heiz-/Kühlbetrieb/Farbkonzept Zusatzsoftware: PowerTool 05.07.2016 Info
203 6134-0-0253 6124/01-803 Raumtemperaturregler solo® - Heiz-/Kühlbetrieb/Farbkonzept Zusatzsoftware: PowerTool 05.07.2016 Info
204 6134-0-0303 6124/01-896 Raumtemperaturregler Busch-axcent® - Heiz-/Kühlbetrieb/Farbkonzept Zusatzsoftware: PowerTool 05.07.2016 Info
205 6134-0-0252 6124/01-866 Raumtemperaturregler pur edelstahl - Heiz-/Kühlbetrieb/Farbkonzept Zusatzsoftware: PowerTool 05.07.2016 Info
206 6132-0-0259 6122/02-81 Busch-Wächter® 180 UP Sensor Komfort II future® linear - mit Multilinse Zusatzsoftware: PowerTool 05.07.2016 Info
207 6132-0-0260 6122/02-82 Busch-Wächter® 180 UP Sensor Komfort II future® linear - mit Multilinse Zusatzsoftware: PowerTool 05.07.2016 Info
208 6132-0-0261 6122/02-83 Busch-Wächter® 180 UP Sensor Komfort II future® linear - mit Multilinse Zusatzsoftware: PowerTool 05.07.2016 Info
209 6132-0-0262 6122/02-84 Busch-Wächter® 180 UP Sensor Komfort II future® linear - mit Multilinse Zusatzsoftware: PowerTool 05.07.2016 Info
210 6132-0-0270 6122/02-884 Busch-Wächter® 180 UP Sensor Komfort II future® linear - mit Multilinse Zusatzsoftware: PowerTool 05.07.2016 Info
211 6132-0-0271 6122/02-885 Busch-Wächter® 180 UP Sensor Komfort II future® linear - mit Multilinse Zusatzsoftware: PowerTool 05.07.2016 Info
212 6132-0-0268 6122/02-803 Busch-Wächter® 180 UP Sensor Komfort II solo® - mit Multilinse Zusatzsoftware: PowerTool 05.07.2016 Info
213 6132-0-0323 6122/02-896 Busch-Wächter® 180 UP Sensor Komfort II Busch-axcent® - mit Multilinse Zusatzsoftware: PowerTool 05.07.2016 Info
214 6132-0-0267 6122/02-866 Busch-Wächter® 180 UP Sensor Komfort II pur edelstahl - mit Multilinse Zusatzsoftware: PowerTool 05.07.2016 Info
215 6115-0-0179 6125/01-81 Bedienelement 1-fach - mit beiliegendem Busankoppler Zusatzsoftware: PowerTool 05.07.2016 Info
216 6115-0-0179 6125/01-81 Bedienelement 1-fach - mit beiliegendem Busankoppler ETS4/ETS5 Applikation 1.0 05.07.2016 Info
217 6115-0-0181 6125/01-83 Bedienelement 1-fach - mit beiliegendem Busankoppler Zusatzsoftware: PowerTool 05.07.2016 Info
218 6115-0-0181 6125/01-83 Bedienelement 1-fach - mit beiliegendem Busankoppler ETS4/ETS5 Applikation 1.0 05.07.2016 Info
219 6115-0-0190 6125/01-884 Bedienelement 1-fach - mit beiliegendem Busankoppler Zusatzsoftware: PowerTool 05.07.2016 Info
220 6115-0-0190 6125/01-884 Bedienelement 1-fach - mit beiliegendem Busankoppler ETS4/ETS5 Applikation 1.0 05.07.2016 Info
221 6115-0-0191 6125/01-885 Bedienelement 1-fach - mit beiliegendem Busankoppler Zusatzsoftware: PowerTool 05.07.2016 Info
222 6115-0-0191 6125/01-885 Bedienelement 1-fach - mit beiliegendem Busankoppler ETS4/ETS5 Applikation 1.0 05.07.2016 Info
223 6116-0-0170 6126/01-81 Bedienelement, 2-fach - mit beiliegendem Busankoppler Zusatzsoftware: PowerTool 05.07.2016 Info
224 6116-0-0170 6126/01-81 Bedienelement, 2-fach - mit beiliegendem Busankoppler ETS4/ETS5 Applikation 1.0 05.07.2016 Info
225 6116-0-0171 6126/01-82 Bedienelement, 2-fach - mit beiliegendem Busankoppler Zusatzsoftware: PowerTool 05.07.2016 Info
226 6116-0-0171 6126/01-82 Bedienelement, 2-fach - mit beiliegendem Busankoppler ETS4/ETS5 Applikation 1.0 05.07.2016 Info
227 6116-0-0172 6126/01-83 Bedienelement, 2-fach - mit beiliegendem Busankoppler Zusatzsoftware: PowerTool 05.07.2016 Info
228 6116-0-0172 6126/01-83 Bedienelement, 2-fach - mit beiliegendem Busankoppler ETS4/ETS5 Applikation 1.0 05.07.2016 Info
229 6116-0-0173 6126/01-84 Bedienelement, 2-fach - mit beiliegendem Busankoppler Zusatzsoftware: PowerTool 05.07.2016 Info
230 6116-0-0173 6126/01-84 Bedienelement, 2-fach - mit beiliegendem Busankoppler ETS4/ETS5 Applikation 1.0 05.07.2016 Info
231 6116-0-0181 6126/01-884 Bedienelement, 2-fach - mit beiliegendem Busankoppler Zusatzsoftware: PowerTool 05.07.2016 Info
232 6116-0-0181 6126/01-884 Bedienelement, 2-fach - mit beiliegendem Busankoppler ETS4/ETS5 Applikation 1.0 05.07.2016 Info
233 6116-0-0182 6126/01-885 Bedienelement, 2-fach - mit beiliegendem Busankoppler Zusatzsoftware: PowerTool 05.07.2016 Info
234 6116-0-0182 6126/01-885 Bedienelement, 2-fach - mit beiliegendem Busankoppler ETS4/ETS5 Applikation 1.0 05.07.2016 Info
235 6117-0-0196 6127/01-81 Bedienelement, 4-fach - mit beiliegendem Busankoppler Zusatzsoftware: PowerTool 05.07.2016 Info
236 6117-0-0196 6127/01-81 Bedienelement, 4-fach - mit beiliegendem Busankoppler ETS4/ETS5 Applikation 1.0 05.07.2016 Info
237 6117-0-0197 6127/01-82 Bedienelement, 4-fach - mit beiliegendem Busankoppler Zusatzsoftware: PowerTool 05.07.2016 Info
238 6117-0-0197 6127/01-82 Bedienelement, 4-fach - mit beiliegendem Busankoppler ETS4/ETS5 Applikation 1.0 05.07.2016 Info
239 6117-0-0198 6127/01-83 Bedienelement, 4-fach - mit beiliegendem Busankoppler Zusatzsoftware: PowerTool 05.07.2016 Info
240 6117-0-0198 6127/01-83 Bedienelement, 4-fach - mit beiliegendem Busankoppler ETS4/ETS5 Applikation 1.0 05.07.2016 Info
241 6117-0-0199 6127/01-84 Bedienelement, 4-fach - mit beiliegendem Busankoppler Zusatzsoftware: PowerTool 05.07.2016 Info
242 6117-0-0199 6127/01-84 Bedienelement, 4-fach - mit beiliegendem Busankoppler ETS4/ETS5 Applikation 1.0 05.07.2016 Info
243 6117-0-0207 6127/01-884 Bedienelement, 4-fach - mit beiliegendem Busankoppler Zusatzsoftware: PowerTool 05.07.2016 Info
244 6117-0-0207 6127/01-884 Bedienelement, 4-fach - mit beiliegendem Busankoppler ETS4/ETS5 Applikation 1.0 05.07.2016 Info
245 6117-0-0208 6127/01-885 Bedienelement, 4-fach - mit beiliegendem Busankoppler Zusatzsoftware: PowerTool 05.07.2016 Info
246 6117-0-0208 6127/01-885 Bedienelement, 4-fach - mit beiliegendem Busankoppler ETS4/ETS5 Applikation 1.0 05.07.2016 Info
247 6115-0-0180 6125/01-82 Bedienelement 1-fach - mit beiliegendem Busankoppler Zusatzsoftware: PowerTool 05.07.2016 Info
248 6115-0-0180 6125/01-82 Bedienelement 1-fach - mit beiliegendem Busankoppler ETS4/ETS5 Applikation 1.0 05.07.2016 Info
249 6115-0-0182 6125/01-84 Bedienelement 1-fach - mit beiliegendem Busankoppler Zusatzsoftware: PowerTool 05.07.2016 Info
250 6115-0-0182 6125/01-84 Bedienelement 1-fach - mit beiliegendem Busankoppler ETS4/ETS5 Applikation 1.0 05.07.2016 Info
251 6115-0-0188 6125/01-803 Bedienelement 1-fach - mit beiliegendem Busankoppler Zusatzsoftware: PowerTool 05.07.2016 Info
252 6115-0-0188 6125/01-803 Bedienelement 1-fach - mit beiliegendem Busankoppler ETS4/ETS5 Applikation 1.0 05.07.2016 Info
253 6116-0-0179 6126/01-803 Bedienelement, 2-fach - mit beiliegendem Busankoppler Zusatzsoftware: PowerTool 05.07.2016 Info
254 6116-0-0179 6126/01-803 Bedienelement, 2-fach - mit beiliegendem Busankoppler ETS4/ETS5 Applikation 1.0 05.07.2016 Info
255 6117-0-0205 6127/01-803 Bedienelement, 4-fach - mit beiliegendem Busankoppler Zusatzsoftware: PowerTool 05.07.2016 Info
256 6117-0-0205 6127/01-803 Bedienelement, 4-fach - mit beiliegendem Busankoppler ETS4/ETS5 Applikation 1.0 05.07.2016 Info
257 6115-0-0448 6125/01-896 Bedienelement 1-fach Busch-axcent® - mit beiliegendem Busankoppler Zusatzsoftware: PowerTool 05.07.2016 Info
258 6115-0-0448 6125/01-896 Bedienelement 1-fach Busch-axcent® - mit beiliegendem Busankoppler ETS4/ETS5 Applikation 1.0 05.07.2016 Info
259 6115-0-0187 6125/01-866 Bedienelement 1-fach pur edelstahl - mit beiliegendem Busankoppler Zusatzsoftware: PowerTool 05.07.2016 Info
260 6115-0-0187 6125/01-866 Bedienelement 1-fach pur edelstahl - mit beiliegendem Busankoppler ETS4/ETS5 Applikation 1.0 05.07.2016 Info
261 6116-0-0223 6126/01-896 Bedienelement, 2-fach Busch-axcent® - mit beiliegendem Busankoppler Zusatzsoftware: PowerTool 05.07.2016 Info
262 6116-0-0223 6126/01-896 Bedienelement, 2-fach Busch-axcent® - mit beiliegendem Busankoppler ETS4/ETS5 Applikation 1.0 05.07.2016 Info
263 6116-0-0178 6126/01-866 Bedienelement, 2-fach pur edelstahl - mit beiliegendem Busankoppler Zusatzsoftware: PowerTool 05.07.2016 Info
264 6116-0-0178 6126/01-866 Bedienelement, 2-fach pur edelstahl - mit beiliegendem Busankoppler ETS4/ETS5 Applikation 1.0 05.07.2016 Info
265 6117-0-0248 6127/01-896 Bedienelement, 4-fach Busch-axcent® - mit beiliegendem Busankoppler Zusatzsoftware: PowerTool 05.07.2016 Info
266 6117-0-0248 6127/01-896 Bedienelement, 4-fach Busch-axcent® - mit beiliegendem Busankoppler ETS4/ETS5 Applikation 1.0 05.07.2016 Info
267 6117-0-0204 6127/01-866 Bedienelement, 4-fach pur edelstahl - mit beiliegendem Busankoppler Zusatzsoftware: PowerTool 05.07.2016 Info
268 6117-0-0204 6127/01-866 Bedienelement, 4-fach pur edelstahl - mit beiliegendem Busankoppler ETS4/ETS5 Applikation 1.0 05.07.2016 Info
269 6134-0-0321 6128/28-81 Bedienelement 2/4-fach, mit RTR future® linear - Multifunktion/Farbkonzept Zusatzsoftware: PowerTool 05.07.2016 Info
270 6134-0-0323 6128/28-83 Bedienelement 2/4-fach, mit RTR future® linear - Multifunktion/Farbkonzept Zusatzsoftware: PowerTool 05.07.2016 Info
271 6134-0-0324 6128/28-84 Bedienelement 2/4-fach, mit RTR future® linear - Multifunktion/Farbkonzept Zusatzsoftware: PowerTool 05.07.2016 Info
272 6134-0-0328 6128/28-884 Bedienelement 2/4-fach, mit RTR future® linear - Multifunktion/Farbkonzept Zusatzsoftware: PowerTool 05.07.2016 Info
273 6134-0-0329 6128/28-885 Bedienelement 2/4-fach, mit RTR future® linear - Multifunktion/Farbkonzept Zusatzsoftware: PowerTool 05.07.2016 Info
274 6134-0-0326 6128/28-803 Bedienelement 2/4-fach, mit RTR solo® - Multifunktion/Farbkonzept Zusatzsoftware: PowerTool 05.07.2016 Info
275 6134-0-0330 6128/28-896 Bedienelement 2/4-fach, mit RTR Busch-axcent® - Multifunktion/Farbkonzept Zusatzsoftware: PowerTool 05.07.2016 Info
276 6134-0-0325 6128/28-866 Bedienelement 2/4-fach, mit RTR pur edelstahl - Multifunktion/Farbkonzept Zusatzsoftware: PowerTool 05.07.2016 Info
277 6134-0-0307 6108/08 Raumtemperaturregler Objektbereich - Heiz-/Kühlbetrieb Zusatzsoftware: PowerTool 05.07.2016 Info
278 6132-0-0311 6179/01-204 Busch-Wächter® 220 MasterLINE KNX Zusatzsoftware: PowerTool 05.07.2016 Info
279 6132-0-0312 6179/01-208 Busch-Wächter® 220 MasterLINE KNX Zusatzsoftware: PowerTool 05.07.2016 Info
280 6132-0-0315 6179/02-204 Busch-Wächter® 220 MasterLINE KNX Premium Zusatzsoftware: PowerTool 05.07.2016 Info
281 6132-0-0316 6179/02-208 Busch-Wächter® 220 MasterLINE KNX Premium Zusatzsoftware: PowerTool 05.07.2016 Info
282 6197-0-0032 6197/12-101 Universal-Dimmaktor 4x 210 W/VA bis 1x 840 W/VA - 1-4-fach Zusatzsoftware: PowerTool 05.07.2016 Info
283 6197-0-0033 6197/13-101 Universal-Dimmaktor 4x 315 W/VA bis 1x 1260 W/VA - 1-4-fach Zusatzsoftware: PowerTool 05.07.2016 Info
284 6197-0-0034 6197/14-101 Universal-Dimmaktor 6x 315 W/VA bis 1x 1890 W/VA - 1-6-fach Zusatzsoftware: PowerTool 05.07.2016 Info
285 6197-0-0035 6197/15-101 Universal-Dimmaktor 4x 600 W/VA bis 1x 2400 W/VA - 1-4-fach Zusatzsoftware: PowerTool 05.07.2016 Info
286 8136-0-0023 8136/09-811 Busch-ComfortPanel - Haussteuerung, Infotainment, Entertainment Zusatzsoftware: IP-Project 3 1.2.1 05.07.2016 Info
287 8136-0-0023 8136/09-811 Busch-ComfortPanel - Haussteuerung, Infotainment, Entertainment Firmware: Busch-ComfortPanel® 3.0 Firmware 1.2.1 05.07.2016 Info
288 8136-0-0023 8136/09-811 Busch-ComfortPanel - Haussteuerung, Infotainment, Entertainment Zusatzsoftware: ComfortPanel 3.0 Miele PlugIn 4.0 05.07.2016
289 8136-0-0023 8136/09-811 Busch-ComfortPanel - Haussteuerung, Infotainment, Entertainment Zusatzsoftware: ComfortPanel 3.0 Philips Hue PlugIn 1.0 05.07.2016
290 8136-0-0023 8136/09-811 Busch-ComfortPanel - Haussteuerung, Infotainment, Entertainment Zusatzsoftware: ComfortPanel 3.0 Sonos PlugIn 1.0 05.07.2016
291 8136-0-0025 8136/09-825 Busch-ComfortPanel - Haussteuerung, Infotainment, Entertainment Zusatzsoftware: IP-Project 3 1.2.1 05.07.2016 Info
292 8136-0-0025 8136/09-825 Busch-ComfortPanel - Haussteuerung, Infotainment, Entertainment Firmware: Busch-ComfortPanel® 3.0 Firmware 1.2.1 05.07.2016 Info
293 8136-0-0025 8136/09-825 Busch-ComfortPanel - Haussteuerung, Infotainment, Entertainment Zusatzsoftware: ComfortPanel 3.0 Miele PlugIn 4.0 05.07.2016
294 8136-0-0025 8136/09-825 Busch-ComfortPanel - Haussteuerung, Infotainment, Entertainment Zusatzsoftware: ComfortPanel 3.0 Philips Hue PlugIn 1.0 05.07.2016
295 8136-0-0025 8136/09-825 Busch-ComfortPanel - Haussteuerung, Infotainment, Entertainment Zusatzsoftware: ComfortPanel 3.0 Sonos PlugIn 1.0 05.07.2016
296 8136-0-0027 8136/12-811 Busch-ComfortPanel® 12.1" - Haussteuerung, Infotainment, Entertainment Zusatzsoftware: IP-Project 3 1.2.1 05.07.2016 Info
297 8136-0-0027 8136/12-811 Busch-ComfortPanel® 12.1" - Haussteuerung, Infotainment, Entertainment Firmware: Busch-ComfortPanel® 3.0 Firmware 1.2.1 05.07.2016 Info
298 8136-0-0027 8136/12-811 Busch-ComfortPanel® 12.1" - Haussteuerung, Infotainment, Entertainment Zusatzsoftware: ComfortPanel 3.0 Miele PlugIn 4.0 05.07.2016
299 8136-0-0027 8136/12-811 Busch-ComfortPanel® 12.1" - Haussteuerung, Infotainment, Entertainment Zusatzsoftware: ComfortPanel 3.0 Philips Hue PlugIn 1.0 05.07.2016
300 8136-0-0027 8136/12-811 Busch-ComfortPanel® 12.1" - Haussteuerung, Infotainment, Entertainment Zusatzsoftware: ComfortPanel 3.0 Sonos PlugIn 1.0 05.07.2016
301 8136-0-0029 8136/12-825 Busch-ComfortPanel® 12.1" - Haussteuerung, Infotainment, Entertainment Zusatzsoftware: IP-Project 3 1.2.1 05.07.2016 Info
302 8136-0-0029 8136/12-825 Busch-ComfortPanel® 12.1" - Haussteuerung, Infotainment, Entertainment Firmware: Busch-ComfortPanel® 3.0 Firmware 1.2.1 05.07.2016 Info
303 8136-0-0029 8136/12-825 Busch-ComfortPanel® 12.1" - Haussteuerung, Infotainment, Entertainment Zusatzsoftware: ComfortPanel 3.0 Miele PlugIn 4.0 05.07.2016
304 8136-0-0029 8136/12-825 Busch-ComfortPanel® 12.1" - Haussteuerung, Infotainment, Entertainment Zusatzsoftware: ComfortPanel 3.0 Philips Hue PlugIn 1.0 05.07.2016
305 8136-0-0029 8136/12-825 Busch-ComfortPanel® 12.1" - Haussteuerung, Infotainment, Entertainment Zusatzsoftware: ComfortPanel 3.0 Sonos PlugIn 1.0 05.07.2016
306 6136-0-0184 6136/100 C-102 Controlpanel - color Zusatzsoftware: RCP-Tool 1.3.445 14.06.2016
307 6136-0-0186 6136/100 CB-102 Controlpanel B&O - BANG & OLUFSEN, color Zusatzsoftware: RCP-Tool 1.3.445 14.06.2016
308 6320-0-0051 6321/38-20 Bedienelement 3/6-fach, mit IR-Schnittstelle und RTR alpha - Busch-triton® ETS4/ETS5 Applikation 1.0 30.05.2016
309 6320-0-0053 6321/38-24G Bedienelement 3/6-fach, mit IR-Schnittstelle und RTR alpha - Busch-triton® ETS4/ETS5 Applikation 1.0 30.05.2016
310 6320-0-0059 6321/38-260 Bedienelement 3/6-fach, mit IR-Schnittstelle und RTR alpha - Busch-triton® ETS4/ETS5 Applikation 1.0 30.05.2016
311 6320-0-0055 6321/38-79 Bedienelement 3/6-fach, mit IR-Schnittstelle und RTR impuls - Busch-triton® ETS4/ETS5 Applikation 1.0 30.05.2016
312 6320-0-0057 6321/38-83 Bedienelement 3/6-fach, mit IR-Schnittstelle und RTR future® linear - Busch-triton® ETS4/ETS5 Applikation 1.0 30.05.2016
313 6320-0-0061 6321/58-20 Bedienelement 5/10-fach, mit IR-Schnittstelle und RTR alpha - Busch-triton® ETS4/ETS5 Applikation 1.0 30.05.2016
314 6320-0-0063 6321/58-24G Bedienelement 5/10-fach, mit IR-Schnittstelle und RTR alpha - Busch-triton® ETS4/ETS5 Applikation 1.0 30.05.2016
315 6320-0-0069 6321/58-260 Bedienelement 5/10-fach, mit IR-Schnittstelle und RTR alpha - Busch-triton® ETS4/ETS5 Applikation 1.0 30.05.2016
316 6320-0-0065 6321/58-79 Bedienelement 5/10-fach, mit IR-Schnittstelle und RTR impuls - Busch-triton® ETS4/ETS5 Applikation 1.0 30.05.2016
317 6320-0-0067 6321/58-83 Bedienelement 5/10-fach, mit IR-Schnittstelle und RTR future® linear - Busch-triton® ETS4/ETS5 Applikation 1.0 30.05.2016
318 6136-0-0201 6136/APP Busch-ControlTouch® - Haussteuerung, Infotainment, Entertainment Lizenzbedingungen: Lizenzbedingung 28.04.2016
319 6136-0-0201 6136/APP Busch-ControlTouch® - Haussteuerung, Infotainment, Entertainment Lizenzbedingungen: Lizenzbedingung 28.04.2016
320 6132-0-0363 6122/10-81 Busch-Wächter 180 UP Sensor Standard, Select - mit integriertem Busankoppler ETS4/ETS5 Applikation 1.0 26.04.2016
321 6132-0-0364 6122/10-82 Busch-Wächter 180 UP Sensor Standard, Select - mit integriertem Busankoppler ETS4/ETS5 Applikation 1.0 26.04.2016
322 6132-0-0357 6122/10-212 Busch-Wächter 180 UP Sensor Standard, Select Busch-Duro 2000® SI - mit integriertem Busankoppler ETS4/ETS5 Applikation 1.0 26.04.2016
323 6132-0-0358 6122/10-214 Busch-Wächter 180 UP Sensor Standard, Select Reflex SI - mit integriertem Busankoppler ETS4/ETS5 Applikation 1.0 26.04.2016
324 6132-0-0359 6122/10-914 Busch-Wächter 180 UP Sensor Standard, Select Busch-balance® SI - mit integriertem Busankoppler ETS4/ETS5 Applikation 1.0 26.04.2016
325 6132-0-0365 6122/10-83 Busch-Wächter 180 UP Sensor Standard, Select future® linear - mit integriertem Busankoppler ETS4/ETS5 Applikation 1.0 26.04.2016
326 6132-0-0366 6122/10-84 Busch-Wächter 180 UP Sensor Standard, Select future® linear - mit integriertem Busankoppler ETS4/ETS5 Applikation 1.0 26.04.2016
327 6132-0-0367 6122/10-884 Busch-Wächter 180 UP Sensor Standard, Select future® linear - mit integriertem Busankoppler ETS4/ETS5 Applikation 1.0 26.04.2016
328 6132-0-0368 6122/10-885 Busch-Wächter 180 UP Sensor Standard, Select future® linear - mit integriertem Busankoppler ETS4/ETS5 Applikation 1.0 26.04.2016
329 6132-0-0369 6122/10-803 Busch-Wächter 180 UP Sensor Standard, Select solo® - mit integriertem Busankoppler ETS4/ETS5 Applikation 1.0 26.04.2016
330 6132-0-0371 6122/10-896 Busch-Wächter 180 UP Sensor Standard, Select Busch-axcent® - mit integriertem Busankoppler ETS4/ETS5 Applikation 1.0 26.04.2016
331 6132-0-0372 6122/10-866 Busch-Wächter 180 UP Sensor Standard, Select pur edelstahl - mit integriertem Busankoppler ETS4/ETS5 Applikation 1.0 26.04.2016
332 6151-0-0243 6164/43-101 Fan Coil-Aktor - 1-fach Aktor ETS4/ETS5 Applikation 1.0 21.04.2016
333 6151-0-0250 6164/47-101 Fan Coil-Aktor - 1-fach Aktor 0-10V ETS4/ETS5 Applikation 1.0 21.04.2016
334 6151-0-0251 6164/48 Fan Coil-Aktor - 1-fach Aktor 0-10V ETS4/ETS5 Applikation 1.0 21.04.2016
335 6151-0-0252 6164/49 Fan Coil-Aktor - 1-fach Aktor ETS4/ETS5 Applikation 1.0 21.04.2016
336 6133-0-0220 6108/06 Tasterankopplung 2-fach - mit integriertem Busankoppler ETS4/ETS5 Applikation 1.0 15.04.2016
337 6133-0-0222 6108/07 Tasterankopplung 4-fach - mit integriertem Busankoppler ETS4/ETS5 Applikation 1.0 15.04.2016
338 6133-0-0224 6108/06-AP Tasterankopplung 2-fach für ocean - mit integriertem Busankoppler ETS4/ETS5 Applikation 1.0 15.04.2016
339 6133-0-0226 6108/07-AP Tasterankopplung 4-fach für ocean - mit integriertem Busankoppler ETS4/ETS5 Applikation 1.0 15.04.2016
340 6134-0-0318 6108/18 Raumtemperaturregler mit Display - Heiz-/Kühlbetrieb ETS4/ETS5 Applikation 1.0 15.04.2016
341 6134-0-0321 6128/28-81 Bedienelement 2/4-fach, mit RTR future® linear - Multifunktion/Farbkonzept ETS4/ETS5 Applikation 1.0 13.04.2016
342 6134-0-0321 6128/28-81 Bedienelement 2/4-fach, mit RTR future® linear - Multifunktion/Farbkonzept ETS4/ETS5 Applikation 1.0 13.04.2016
343 6134-0-0321 6128/28-81 Bedienelement 2/4-fach, mit RTR future® linear - Multifunktion/Farbkonzept ETS4/ETS5 Applikation 1.0 13.04.2016
344 6134-0-0321 6128/28-81 Bedienelement 2/4-fach, mit RTR future® linear - Multifunktion/Farbkonzept ETS4/ETS5 Applikation 1.0 13.04.2016
345 6134-0-0322 6128/28-82 Bedienelement 2/4-fach, mit RTR future® linear - Multifunktion/Farbkonzept ETS4/ETS5 Applikation 1.0 13.04.2016
346 6134-0-0322 6128/28-82 Bedienelement 2/4-fach, mit RTR future® linear - Multifunktion/Farbkonzept ETS4/ETS5 Applikation 1.0 13.04.2016
347 6134-0-0322 6128/28-82 Bedienelement 2/4-fach, mit RTR future® linear - Multifunktion/Farbkonzept ETS4/ETS5 Applikation 1.0 13.04.2016
348 6134-0-0322 6128/28-82 Bedienelement 2/4-fach, mit RTR future® linear - Multifunktion/Farbkonzept ETS4/ETS5 Applikation 1.0 13.04.2016
349 6134-0-0323 6128/28-83 Bedienelement 2/4-fach, mit RTR future® linear - Multifunktion/Farbkonzept ETS4/ETS5 Applikation 1.0 13.04.2016
350 6134-0-0323 6128/28-83 Bedienelement 2/4-fach, mit RTR future® linear - Multifunktion/Farbkonzept ETS4/ETS5 Applikation 1.0 13.04.2016
351 6134-0-0323 6128/28-83 Bedienelement 2/4-fach, mit RTR future® linear - Multifunktion/Farbkonzept ETS4/ETS5 Applikation 1.0 13.04.2016
352 6134-0-0323 6128/28-83 Bedienelement 2/4-fach, mit RTR future® linear - Multifunktion/Farbkonzept ETS4/ETS5 Applikation 1.0 13.04.2016
353 6134-0-0324 6128/28-84 Bedienelement 2/4-fach, mit RTR future® linear - Multifunktion/Farbkonzept ETS4/ETS5 Applikation 1.0 13.04.2016
354 6134-0-0324 6128/28-84 Bedienelement 2/4-fach, mit RTR future® linear - Multifunktion/Farbkonzept ETS4/ETS5 Applikation 1.0 13.04.2016
355 6134-0-0324 6128/28-84 Bedienelement 2/4-fach, mit RTR future® linear - Multifunktion/Farbkonzept ETS4/ETS5 Applikation 1.0 13.04.2016
356 6134-0-0324 6128/28-84 Bedienelement 2/4-fach, mit RTR future® linear - Multifunktion/Farbkonzept ETS4/ETS5 Applikation 1.0 13.04.2016
357 6134-0-0328 6128/28-884 Bedienelement 2/4-fach, mit RTR future® linear - Multifunktion/Farbkonzept ETS4/ETS5 Applikation 1.0 13.04.2016
358 6134-0-0328 6128/28-884 Bedienelement 2/4-fach, mit RTR future® linear - Multifunktion/Farbkonzept ETS4/ETS5 Applikation 1.0 13.04.2016
359 6134-0-0328 6128/28-884 Bedienelement 2/4-fach, mit RTR future® linear - Multifunktion/Farbkonzept ETS4/ETS5 Applikation 1.0 13.04.2016
360 6134-0-0328 6128/28-884 Bedienelement 2/4-fach, mit RTR future® linear - Multifunktion/Farbkonzept ETS4/ETS5 Applikation 1.0 13.04.2016
361 6134-0-0329 6128/28-885 Bedienelement 2/4-fach, mit RTR future® linear - Multifunktion/Farbkonzept ETS4/ETS5 Applikation 1.0 13.04.2016
362 6134-0-0329 6128/28-885 Bedienelement 2/4-fach, mit RTR future® linear - Multifunktion/Farbkonzept ETS4/ETS5 Applikation 1.0 13.04.2016
363 6134-0-0329 6128/28-885 Bedienelement 2/4-fach, mit RTR future® linear - Multifunktion/Farbkonzept ETS4/ETS5 Applikation 1.0 13.04.2016
364 6134-0-0329 6128/28-885 Bedienelement 2/4-fach, mit RTR future® linear - Multifunktion/Farbkonzept ETS4/ETS5 Applikation 1.0 13.04.2016
365 6134-0-0326 6128/28-803 Bedienelement 2/4-fach, mit RTR solo® - Multifunktion/Farbkonzept ETS4/ETS5 Applikation 1.0 13.04.2016
366 6134-0-0326 6128/28-803 Bedienelement 2/4-fach, mit RTR solo® - Multifunktion/Farbkonzept ETS4/ETS5 Applikation 1.0 13.04.2016
367 6134-0-0326 6128/28-803 Bedienelement 2/4-fach, mit RTR solo® - Multifunktion/Farbkonzept ETS4/ETS5 Applikation 1.0 13.04.2016
368 6134-0-0326 6128/28-803 Bedienelement 2/4-fach, mit RTR solo® - Multifunktion/Farbkonzept ETS4/ETS5 Applikation 1.0 13.04.2016
369 6134-0-0330 6128/28-896 Bedienelement 2/4-fach, mit RTR Busch-axcent® - Multifunktion/Farbkonzept ETS4/ETS5 Applikation 1.0 13.04.2016
370 6134-0-0330 6128/28-896 Bedienelement 2/4-fach, mit RTR Busch-axcent® - Multifunktion/Farbkonzept ETS4/ETS5 Applikation 1.0 13.04.2016
371 6134-0-0330 6128/28-896 Bedienelement 2/4-fach, mit RTR Busch-axcent® - Multifunktion/Farbkonzept ETS4/ETS5 Applikation 1.0 13.04.2016
372 6134-0-0330 6128/28-896 Bedienelement 2/4-fach, mit RTR Busch-axcent® - Multifunktion/Farbkonzept ETS4/ETS5 Applikation 1.0 13.04.2016
373 6134-0-0325 6128/28-866 Bedienelement 2/4-fach, mit RTR pur edelstahl - Multifunktion/Farbkonzept ETS4/ETS5 Applikation 1.0 13.04.2016
374 6134-0-0325 6128/28-866 Bedienelement 2/4-fach, mit RTR pur edelstahl - Multifunktion/Farbkonzept ETS4/ETS5 Applikation 1.0 13.04.2016
375 6134-0-0325 6128/28-866 Bedienelement 2/4-fach, mit RTR pur edelstahl - Multifunktion/Farbkonzept ETS4/ETS5 Applikation 1.0 13.04.2016
376 6134-0-0325 6128/28-866 Bedienelement 2/4-fach, mit RTR pur edelstahl - Multifunktion/Farbkonzept ETS4/ETS5 Applikation 1.0 13.04.2016
377 6136-0-0201 6136/APP Busch-ControlTouch® - Haussteuerung, Infotainment, Entertainment Zusatzsoftware: Finde dein Busch-ControlTouch® Windows. 1.0 29.03.2016
378 6136-0-0201 6136/APP Busch-ControlTouch® - Haussteuerung, Infotainment, Entertainment Zusatzsoftware: Finde dein Busch-ControlTouch® Mac. 1.0 29.03.2016
379 8300-0-0353 83221AP-611 Busch-free@homePanel 7" - Innenstation Video mit 17,8 cm (7") Touch-Display Installationsanleitung 22.03.2016
380 8300-0-0353 83221AP-611 Busch-free@homePanel 7" - Innenstation Video mit 17,8 cm (7") Touch-Display Firmware: Busch-free@homePanel 7" 1.16 22.03.2016
381 8300-0-0354 83221AP-625 Busch-free@homePanel 7" - Innenstation Video mit 17,8 cm (7") Touch-Display Installationsanleitung 22.03.2016
382 8300-0-0354 83221AP-625 Busch-free@homePanel 7" - Innenstation Video mit 17,8 cm (7") Touch-Display Firmware: Busch-free@homePanel 7" 1.16 22.03.2016
383 8100-0-0358 8186/31-101 WLAN-Accesspoint, UP - Spannungsversorgung durch Netzspannung Firmware 3.0 10.11.2015
384 6220-0-0031 6200 AP System Access Point - für Busch-free@home® Installationsanleitung 16.07.2015
385 6200-0-0071 6200 AP-101 System Access Point - für Busch-free@home® Installationsanleitung 16.07.2015
386 6220-0-0031 6200 AP System Access Point - für Busch-free@home® Mit Download der Firmware gelten die folgenden Lizenzbedingungen 16.06.2015
387 6220-0-0031 6200 AP System Access Point - für Busch-free@home® Cyber Security Information 16.06.2015
388 6200-0-0071 6200 AP-101 System Access Point - für Busch-free@home® Mit Download der Firmware gelten die folgenden Lizenzbedingungen 16.06.2015
389 6200-0-0071 6200 AP-101 System Access Point - für Busch-free@home® Cyber Security Information 16.06.2015
390 6120-0-0074 6120/12-101 Busankoppler Zusatzsoftware: PowerTool 29.05.2015 Info
391 6120-0-0071 6120/13 UP-Power-Busankoppler - Busch-priOn® Zusatzsoftware: PowerTool 29.05.2015 Info
392 8300-0-0353 83221AP-611 Busch-free@homePanel 7" - Innenstation Video mit 17,8 cm (7") Touch-Display Release Notes 1.11 22.05.2015
393 8300-0-0354 83221AP-625 Busch-free@homePanel 7" - Innenstation Video mit 17,8 cm (7") Touch-Display Release Notes 1.11 22.05.2015
394 8300-0-0374 83342 IP-Gateway Firmware 3.13 14.05.2015
395 6900-0-1697 6936/100 C-102 Controlpanel - color Zusatzsoftware: RCP-Tool 1.3.439 12.05.2015
396 6900-0-1698 6936/100 CB-102 Controlpanel B&O - BANG & OLUFSEN, color Zusatzsoftware: RCP-Tool 1.3.439 12.05.2015
397 6190-0-0044 6190/10-101 Wetterzentrale ETS3 Applikation 1.0 30.04.2015
398 6800-0-2545 6854 AGM-201 Busch-Wächter® 70 MasterLINE Zusatzsoftware: Busch-Wächter® CAD-Planungssoftware 4.4.0.0 21.04.2015
399 6800-0-2542 6854 AGM-204 Busch-Wächter® 70 MasterLINE Zusatzsoftware: Busch-Wächter® CAD-Planungssoftware 4.4.0.0 21.04.2015
400 6800-0-2543 6854 AGM-208 Busch-Wächter® 70 MasterLINE Zusatzsoftware: Busch-Wächter® CAD-Planungssoftware 4.4.0.0 21.04.2015
401 6800-0-2544 6854 AGM-35 Busch-Wächter® 70 MasterLINE Zusatzsoftware: Busch-Wächter® CAD-Planungssoftware 4.4.0.0 21.04.2015
402 6800-0-2610 6855 AGM-201 Busch-Wächter® 110 MasterLINE Zusatzsoftware: Busch-Wächter® CAD-Planungssoftware 4.4.0.0 21.04.2015
403 6800-0-2607 6855 AGM-204 Busch-Wächter® 110 MasterLINE Zusatzsoftware: Busch-Wächter® CAD-Planungssoftware 4.4.0.0 21.04.2015
404 6800-0-2608 6855 AGM-208 Busch-Wächter® 110 MasterLINE Zusatzsoftware: Busch-Wächter® CAD-Planungssoftware 4.4.0.0 21.04.2015
405 6800-0-2609 6855 AGM-35 Busch-Wächter® 110 MasterLINE Zusatzsoftware: Busch-Wächter® CAD-Planungssoftware 4.4.0.0 21.04.2015
406 6800-0-2523 6847/11 AGM-201 Busch-Wächter® 220 MasterLINE Zusatzsoftware: Busch-Wächter® CAD-Planungssoftware 4.4.0.0 21.04.2015
407 6800-0-2520 6847/11 AGM-204 Busch-Wächter® 220 MasterLINE Zusatzsoftware: Busch-Wächter® CAD-Planungssoftware 4.4.0.0 21.04.2015
408 6800-0-2521 6847/11 AGM-208 Busch-Wächter® 220 MasterLINE Zusatzsoftware: Busch-Wächter® CAD-Planungssoftware 4.4.0.0 21.04.2015
409 6800-0-2522 6847/11 AGM-35 Busch-Wächter® 220 MasterLINE Zusatzsoftware: Busch-Wächter® CAD-Planungssoftware 4.4.0.0 21.04.2015
410 6800-0-2531 6847 AGM-201 Busch-Wächter® 220 MasterLINE - inkl. IR-Handsender Zusatzsoftware: Busch-Wächter® CAD-Planungssoftware 4.4.0.0 21.04.2015
411 6800-0-2528 6847 AGM-204 Busch-Wächter® 220 MasterLINE - inkl. IR-Handsender Zusatzsoftware: Busch-Wächter® CAD-Planungssoftware 4.4.0.0 21.04.2015
412 6800-0-2529 6847 AGM-208 Busch-Wächter® 220 MasterLINE - inkl. IR-Handsender Zusatzsoftware: Busch-Wächter® CAD-Planungssoftware 4.4.0.0 21.04.2015
413 6800-0-2530 6847 AGM-35 Busch-Wächter® 220 MasterLINE - inkl. IR-Handsender Zusatzsoftware: Busch-Wächter® CAD-Planungssoftware 4.4.0.0 21.04.2015
414 6800-0-2599 6847/8 AGM-204 Busch-Wächter® 220 MasterLINE - inkl. IR-Handsender Zusatzsoftware: Busch-Wächter® CAD-Planungssoftware 4.4.0.0 21.04.2015
415 6800-0-2536 6847 AGS-204 Busch-Wächter® 220 MasterLINE select Zusatzsoftware: Busch-Wächter® CAD-Planungssoftware 4.4.0.0 21.04.2015
416 6800-0-2577 6848 AGM-201 Busch-Wächter® 220 MasterLINE premium - inkl. IR-Handsender Zusatzsoftware: Busch-Wächter® CAD-Planungssoftware 4.4.0.0 21.04.2015
417 6800-0-2574 6848 AGM-204 Busch-Wächter® 220 MasterLINE premium - inkl. IR-Handsender Zusatzsoftware: Busch-Wächter® CAD-Planungssoftware 4.4.0.0 21.04.2015
418 6800-0-2575 6848 AGM-208 Busch-Wächter® 220 MasterLINE premium - inkl. IR-Handsender Zusatzsoftware: Busch-Wächter® CAD-Planungssoftware 4.4.0.0 21.04.2015
419 6800-0-2576 6848 AGM-35 Busch-Wächter® 220 MasterLINE premium - inkl. IR-Handsender Zusatzsoftware: Busch-Wächter® CAD-Planungssoftware 4.4.0.0 21.04.2015
420 6800-0-2553 6867 AGM-201 Busch-Wächter® 280 MasterLINE - inkl. IR-Handsender Zusatzsoftware: Busch-Wächter® CAD-Planungssoftware 4.4.0.0 21.04.2015
421 6800-0-2550 6867 AGM-204 Busch-Wächter® 280 MasterLINE - inkl. IR-Handsender Zusatzsoftware: Busch-Wächter® CAD-Planungssoftware 4.4.0.0 21.04.2015
422 6800-0-2551 6867 AGM-208 Busch-Wächter® 280 MasterLINE - inkl. IR-Handsender Zusatzsoftware: Busch-Wächter® CAD-Planungssoftware 4.4.0.0 21.04.2015
423 6800-0-2552 6867 AGM-35 Busch-Wächter® 280 MasterLINE - inkl. IR-Handsender Zusatzsoftware: Busch-Wächter® CAD-Planungssoftware 4.4.0.0 21.04.2015
424 6700-0-0034 6747 AGM-201 Busch-Wächter® 220 WaveLINE Zusatzsoftware: Busch-Wächter® CAD-Planungssoftware 4.4.0.0 21.04.2015
425 6700-0-0031 6747 AGM-204 Busch-Wächter® 220 WaveLINE Zusatzsoftware: Busch-Wächter® CAD-Planungssoftware 4.4.0.0 21.04.2015
426 6700-0-0032 6747 AGM-208 Busch-Wächter® 220 WaveLINE Zusatzsoftware: Busch-Wächter® CAD-Planungssoftware 4.4.0.0 21.04.2015
427 6700-0-0033 6747 AGM-35 Busch-Wächter® 220 WaveLINE Zusatzsoftware: Busch-Wächter® CAD-Planungssoftware 4.4.0.0 21.04.2015
428 6800-0-2318 6853 AGM-201 Busch-Wächter® 90 ProfessionalLINE Zusatzsoftware: Busch-Wächter® CAD-Planungssoftware 4.4.0.0 21.04.2015
429 6800-0-2317 6853 AGM-204 Busch-Wächter® 90 ProfessionalLINE Zusatzsoftware: Busch-Wächter® CAD-Planungssoftware 4.4.0.0 21.04.2015
430 6800-0-2331 6845/11 AGM-201 Busch-Wächter® 220 ProfessionalLINE - ohne IR-Handsender Zusatzsoftware: Busch-Wächter® CAD-Planungssoftware 4.4.0.0 21.04.2015
431 6800-0-2330 6845/11 AGM-204 Busch-Wächter® 220 ProfessionalLINE - ohne IR-Handsender Zusatzsoftware: Busch-Wächter® CAD-Planungssoftware 4.4.0.0 21.04.2015
432 8136-0-0023 8136/09-811 Busch-ComfortPanel - Haussteuerung, Infotainment, Entertainment Lizenzbedingungen: Cyber Security Information 16.04.2015
433 8136-0-0025 8136/09-825 Busch-ComfortPanel - Haussteuerung, Infotainment, Entertainment Lizenzbedingungen: Cyber Security Information 16.04.2015
434 8136-0-0027 8136/12-811 Busch-ComfortPanel® 12.1" - Haussteuerung, Infotainment, Entertainment Lizenzbedingungen: Cyber Security Information 16.04.2015
435 8136-0-0029 8136/12-825 Busch-ComfortPanel® 12.1" - Haussteuerung, Infotainment, Entertainment Lizenzbedingungen: Cyber Security Information 16.04.2015
436 6190-0-0046 6190/51-101 Analogeingang - 4-fach ETS3 Applikation 1.0 27.03.2015
437 6190-0-0046 6190/51-101 Analogeingang - 4-fach ETS4/ETS5 Applikation 1.0 27.03.2015
438 6120-0-0071 6120/13 UP-Power-Busankoppler - Busch-priOn® Firmware 18.03.2015 Info
439 6151-0-0212 6174/09 Raum-Controller - 4-fach ETS3 Applikation 1.1 18.03.2015
440 6151-0-0212 6174/09 Raum-Controller - 4-fach ETS4/ETS5 Applikation 1.1 18.03.2015
441 6151-0-0211 6174/10-101 Raum-Controller - 8-fach ETS3 Applikation 1.1 18.03.2015
442 6189-0-0091 6193/32-101 Universal-Ein-/-Ausgabe - 32-fach ETS3 Applikation 1.2 18.03.2015
443 6189-0-0091 6193/32-101 Universal-Ein-/-Ausgabe - 32-fach ETS4/ETS5 Applikation 1.2 18.03.2015
444 6310-0-0060 6920/13 UP-Power-Netzankoppler Firmware 18.03.2015 Info
445 8100-0-0356 8186/41 WLAN-Accesspoint PoE, UP - Spannungsversorgung durch Power over Ethernet Firmware 2.0 05.03.2015
446 6310-0-0129 6344-24G-101 8,89 cm TFT-Farbdisplay mit Drehbedienelement - Busch-priOn® ETS3 Applikation 2.0 17.02.2015 Info
447 6310-0-0173 6344-811-101 8,89 cm TFT-Farbdisplay mit Drehbedienelement - Busch-priOn® ETS3 Applikation 2.0 17.02.2015 Info
448 6310-0-0128 6344-825-101 8,89 cm TFT-Farbdisplay mit Drehbedienelement - Busch-priOn® ETS3 Applikation 2.0 17.02.2015 Info
449 6310-0-0126 6344-866-101 8,89 cm TFT-Farbdisplay mit Drehbedienelement - Busch-priOn® ETS3 Applikation 2.0 17.02.2015 Info
450 6310-0-0121 6342-24G-101 Bedienelement 3-fach - Busch-priOn® ETS-Applikation für PowerTool 2.0 17.02.2015 Info
451 6310-0-0121 6342-24G-101 Bedienelement 3-fach - Busch-priOn® ETS-Applikation für PowerTool 2.0 17.02.2015 Info
452 6310-0-0171 6342-811-101 Bedienelement 3-fach - Busch-priOn® ETS-Applikation für PowerTool 2.0 17.02.2015 Info
453 6310-0-0171 6342-811-101 Bedienelement 3-fach - Busch-priOn® ETS-Applikation für PowerTool 2.0 17.02.2015 Info
454 6310-0-0120 6342-825-101 Bedienelement 3-fach - Busch-priOn® ETS-Applikation für PowerTool 2.0 17.02.2015 Info
455 6310-0-0120 6342-825-101 Bedienelement 3-fach - Busch-priOn® ETS-Applikation für PowerTool 2.0 17.02.2015 Info
456 6310-0-0118 6342-866-101 Bedienelement 3-fach - Busch-priOn® ETS-Applikation für PowerTool 2.0 17.02.2015 Info
457 6310-0-0118 6342-866-101 Bedienelement 3-fach - Busch-priOn® ETS-Applikation für PowerTool 2.0 17.02.2015 Info
458 6310-0-0105 6340-24G-101 Bedienelement 1-fach - Busch-priOn® ETS-Applikation für PowerTool 2.0 17.02.2015 Info
459 6310-0-0105 6340-24G-101 Bedienelement 1-fach - Busch-priOn® ETS-Applikation für PowerTool 2.0 17.02.2015 Info
460 6310-0-0167 6340-811-101 Bedienelement 1-fach - Busch-priOn® ETS-Applikation für PowerTool 2.0 17.02.2015 Info
461 6310-0-0167 6340-811-101 Bedienelement 1-fach - Busch-priOn® ETS-Applikation für PowerTool 2.0 17.02.2015 Info
462 6310-0-0104 6340-825-101 Bedienelement 1-fach - Busch-priOn® ETS-Applikation für PowerTool 2.0 17.02.2015 Info
463 6310-0-0104 6340-825-101 Bedienelement 1-fach - Busch-priOn® ETS-Applikation für PowerTool 2.0 17.02.2015 Info
464 6310-0-0102 6340-866-101 Bedienelement 1-fach - Busch-priOn® ETS-Applikation für PowerTool 2.0 17.02.2015 Info
465 6310-0-0102 6340-866-101 Bedienelement 1-fach - Busch-priOn® ETS-Applikation für PowerTool 2.0 17.02.2015 Info
466 6310-0-0113 6341-24G-101 Drehbedienelement 1-fach - Busch-priOn® ETS-Applikation für PowerTool 2.0 17.02.2015 Info
467 6310-0-0113 6341-24G-101 Drehbedienelement 1-fach - Busch-priOn® ETS-Applikation für PowerTool 2.0 17.02.2015 Info
468 6310-0-0169 6341-811-101 Drehbedienelement 1-fach - Busch-priOn® ETS-Applikation für PowerTool 2.0 17.02.2015 Info
469 6310-0-0169 6341-811-101 Drehbedienelement 1-fach - Busch-priOn® ETS-Applikation für PowerTool 2.0 17.02.2015 Info
470 6310-0-0112 6341-825-101 Drehbedienelement 1-fach - Busch-priOn® ETS-Applikation für PowerTool 2.0 17.02.2015 Info
471 6310-0-0112 6341-825-101 Drehbedienelement 1-fach - Busch-priOn® ETS-Applikation für PowerTool 2.0 17.02.2015 Info
472 6310-0-0110 6341-866-101 Drehbedienelement 1-fach - Busch-priOn® ETS-Applikation für PowerTool 2.0 17.02.2015 Info
473 6310-0-0110 6341-866-101 Drehbedienelement 1-fach - Busch-priOn® ETS-Applikation für PowerTool 2.0 17.02.2015 Info
474 6310-0-0020 6345-24G-101 Busch-Wächter® 180 UP - Busch-priOn® ETS-Applikation für PowerTool 2.0 17.02.2015
475 6310-0-0020 6345-24G-101 Busch-Wächter® 180 UP - Busch-priOn® ETS-Applikation für PowerTool 2.0 17.02.2015
476 6310-0-0175 6345-811-101 Busch-Wächter® 180 UP - Busch-priOn® ETS-Applikation für PowerTool 2.0 17.02.2015 Info
477 6310-0-0175 6345-811-101 Busch-Wächter® 180 UP - Busch-priOn® ETS-Applikation für PowerTool 2.0 17.02.2015 Info
478 6310-0-0019 6345-825-101 Busch-Wächter® 180 UP - Busch-priOn® ETS-Applikation für PowerTool 2.0 17.02.2015
479 6310-0-0019 6345-825-101 Busch-Wächter® 180 UP - Busch-priOn® ETS-Applikation für PowerTool 2.0 17.02.2015
480 6310-0-0017 6345-866-101 Busch-Wächter® 180 UP - Busch-priOn® ETS-Applikation für PowerTool 2.0 17.02.2015
481 6310-0-0017 6345-866-101 Busch-Wächter® 180 UP - Busch-priOn® ETS-Applikation für PowerTool 2.0 17.02.2015
482 6310-0-0156 6350-825-101 Abschlussleiste oben mit IR-Empfänger und Näherungssensor - Busch-priOn® ETS-Applikation für PowerTool 2.0 17.02.2015 Info
483 6310-0-0156 6350-825-101 Abschlussleiste oben mit IR-Empfänger und Näherungssensor - Busch-priOn® ETS-Applikation für PowerTool 2.0 17.02.2015 Info
484 6310-0-0184 6351/08-825 Abschlussleiste oben mit Infodisplay, RTR, IR-Empfänger und Näherungssensor - Busch-priOn® ETS-Applikation für PowerTool 2.0 17.02.2015 Info
485 6310-0-0184 6351/08-825 Abschlussleiste oben mit Infodisplay, RTR, IR-Empfänger und Näherungssensor - Busch-priOn® ETS-Applikation für PowerTool 2.0 17.02.2015 Info
486 6310-0-0143 6348-24G-101 Standardabschlussleiste oben - Busch-priOn® ETS-Applikation für PowerTool 2.0 17.02.2015 Info
487 6310-0-0143 6348-24G-101 Standardabschlussleiste oben - Busch-priOn® ETS-Applikation für PowerTool 2.0 17.02.2015 Info
488 6310-0-0177 6348-811-101 Standardabschlussleiste oben - Busch-priOn® ETS-Applikation für PowerTool 2.0 17.02.2015 Info
489 6310-0-0177 6348-811-101 Standardabschlussleiste oben - Busch-priOn® ETS-Applikation für PowerTool 2.0 17.02.2015 Info
490 6310-0-0142 6348-825-101 Standardabschlussleiste oben - Busch-priOn® ETS-Applikation für PowerTool 2.0 17.02.2015 Info
491 6310-0-0142 6348-825-101 Standardabschlussleiste oben - Busch-priOn® ETS-Applikation für PowerTool 2.0 17.02.2015 Info
492 6310-0-0140 6348-860-101 Standardabschlussleiste oben - Busch-priOn® ETS-Applikation für PowerTool 2.0 17.02.2015 Info
493 6310-0-0140 6348-860-101 Standardabschlussleiste oben - Busch-priOn® ETS-Applikation für PowerTool 2.0 17.02.2015 Info
494 6310-0-0151 6349-24G-101 Standardabschlussleiste unten mit Schriftzug - Busch-priOn® ETS-Applikation für PowerTool 2.0 17.02.2015 Info
495 6310-0-0151 6349-24G-101 Standardabschlussleiste unten mit Schriftzug - Busch-priOn® ETS-Applikation für PowerTool 2.0 17.02.2015 Info
496 6310-0-0179 6349-811-101 Standardabschlussleiste unten mit Schriftzug - Busch-priOn® ETS-Applikation für PowerTool 2.0 17.02.2015 Info
497 6310-0-0179 6349-811-101 Standardabschlussleiste unten mit Schriftzug - Busch-priOn® ETS-Applikation für PowerTool 2.0 17.02.2015 Info
498 6310-0-0150 6349-825-101 Standardabschlussleiste unten mit Schriftzug - Busch-priOn® ETS-Applikation für PowerTool 2.0 17.02.2015 Info
499 6310-0-0150 6349-825-101 Standardabschlussleiste unten mit Schriftzug - Busch-priOn® ETS-Applikation für PowerTool 2.0 17.02.2015 Info
500 6310-0-0148 6349-860-101 Standardabschlussleiste unten mit Schriftzug - Busch-priOn® ETS-Applikation für PowerTool 2.0 17.02.2015 Info
501 6310-0-0148 6349-860-101 Standardabschlussleiste unten mit Schriftzug - Busch-priOn® ETS-Applikation für PowerTool 2.0 17.02.2015 Info
502 6310-0-0134 6346/10-101 Grundträger, 1-fach - Busch-priOn® ETS-Applikation für PowerTool 2.0 17.02.2015 Info
503 6310-0-0134 6346/10-101 Grundträger, 1-fach - Busch-priOn® ETS-Applikation für PowerTool 2.0 17.02.2015 Info
504 6310-0-0136 6346/11-101 Grundträger, 2-fach - Busch-priOn® ETS-Applikation für PowerTool 2.0 17.02.2015 Info
505 6310-0-0136 6346/11-101 Grundträger, 2-fach - Busch-priOn® ETS-Applikation für PowerTool 2.0 17.02.2015 Info
506 6310-0-0138 6346/12-101 Grundträger, 3-fach - Busch-priOn® ETS-Applikation für PowerTool 2.0 17.02.2015 Info
507 6310-0-0138 6346/12-101 Grundträger, 3-fach - Busch-priOn® ETS-Applikation für PowerTool 2.0 17.02.2015 Info
508 6310-0-0161 6352-24G-101 Abschlussleiste unten mit Temperaturfühler und Schriftzug - Busch-priOn® ETS-Applikation für PowerTool 2.0 17.02.2015 Info
509 6310-0-0161 6352-24G-101 Abschlussleiste unten mit Temperaturfühler und Schriftzug - Busch-priOn® ETS-Applikation für PowerTool 2.0 17.02.2015 Info
510 6310-0-0181 6352-811-101 Abschlussleiste unten mit Temperaturfühler und Schriftzug - Busch-priOn® ETS-Applikation für PowerTool 2.0 17.02.2015 Info
511 6310-0-0181 6352-811-101 Abschlussleiste unten mit Temperaturfühler und Schriftzug - Busch-priOn® ETS-Applikation für PowerTool 2.0 17.02.2015 Info
512 6310-0-0160 6352-825-101 Abschlussleiste unten mit Temperaturfühler und Schriftzug - Busch-priOn® ETS-Applikation für PowerTool 2.0 17.02.2015 Info
513 6310-0-0160 6352-825-101 Abschlussleiste unten mit Temperaturfühler und Schriftzug - Busch-priOn® ETS-Applikation für PowerTool 2.0 17.02.2015 Info
514 6310-0-0158 6352-860-101 Abschlussleiste unten mit Temperaturfühler und Schriftzug - Busch-priOn® ETS-Applikation für PowerTool 2.0 17.02.2015 Info
515 6310-0-0158 6352-860-101 Abschlussleiste unten mit Temperaturfühler und Schriftzug - Busch-priOn® ETS-Applikation für PowerTool 2.0 17.02.2015 Info
516 6310-0-0054 6354 U Schaltaktor 1-fach, UP - Busch-priOn® ETS-Applikation für PowerTool 2.0 17.02.2015 Info
517 6310-0-0054 6354 U Schaltaktor 1-fach, UP - Busch-priOn® ETS-Applikation für PowerTool 2.0 17.02.2015 Info
518 6310-0-0055 6355 U Universal-Dimmaktor 1-fach, UP - Busch-priOn® ETS-Applikation für PowerTool 2.0 17.02.2015 Info
519 6310-0-0055 6355 U Universal-Dimmaktor 1-fach, UP - Busch-priOn® ETS-Applikation für PowerTool 2.0 17.02.2015 Info
520 6310-0-0056 6356 U Serien-/Jalousieaktor 2/1-fach, UP - Busch-priOn® ETS-Applikation für PowerTool 2.0 17.02.2015 Info
521 6310-0-0056 6356 U Serien-/Jalousieaktor 2/1-fach, UP - Busch-priOn® ETS-Applikation für PowerTool 2.0 17.02.2015 Info
522 6134-0-0307 6108/08 Raumtemperaturregler Objektbereich - Heiz-/Kühlbetrieb ETS-Applikation für PowerTool 1.0 17.02.2015 Info
523 6134-0-0307 6108/08 Raumtemperaturregler Objektbereich - Heiz-/Kühlbetrieb ETS4/ETS5 Applikation 1.0 17.02.2015
524 6132-0-0330 6131/20-183 Busch-Präsenzmelder Mini KNX - 8 Meter ETS3 Applikation 1.0 16.02.2015 Info
525 6132-0-0329 6131/20-24 Busch-Präsenzmelder Mini KNX - 8 Meter ETS3 Applikation 1.0 16.02.2015 Info
526 6132-0-0332 6131/21-183 Busch-Präsenzmelder Mini Premium KNX - 8 Meter ETS3 Applikation 1.0 16.02.2015 Info
527 6132-0-0331 6131/21-24 Busch-Präsenzmelder Mini Premium KNX - 8 Meter ETS3 Applikation 1.0 16.02.2015 Info
528 6132-0-0334 6131/30-183 Busch-Präsenzmelder KNX - 12 Meter ETS3 Applikation 1.0 16.02.2015 Info
529 6132-0-0333 6131/30-24 Busch-Präsenzmelder KNX - 12 Meter ETS3 Applikation 1.0 16.02.2015 Info
530 6132-0-0336 6131/31-183 Busch-Präsenzmelder Premium KNX - 12 Meter ETS3 Applikation 1.0 16.02.2015 Info
531 6132-0-0335 6131/31-24 Busch-Präsenzmelder Premium KNX - 12 Meter ETS3 Applikation 1.0 16.02.2015 Info
532 6132-0-0337 6131/40-24 Busch-Wächter® Sky KNX - 24 Meter ETS3 Applikation 1.0 16.02.2015 Info
533 6132-0-0330 6131/20-183 Busch-Präsenzmelder Mini KNX - 8 Meter ETS4/ETS5 Applikation 1.0 28.11.2014 Info
534 6132-0-0329 6131/20-24 Busch-Präsenzmelder Mini KNX - 8 Meter ETS4/ETS5 Applikation 1.0 28.11.2014 Info
535 6132-0-0334 6131/30-183 Busch-Präsenzmelder KNX - 12 Meter ETS4/ETS5 Applikation 1.0 28.11.2014 Info
536 6132-0-0333 6131/30-24 Busch-Präsenzmelder KNX - 12 Meter ETS4/ETS5 Applikation 1.0 28.11.2014 Info
537 6132-0-0337 6131/40-24 Busch-Wächter® Sky KNX - 24 Meter ETS4/ETS5 Applikation 1.0 28.11.2014 Info
538 8100-0-0358 8186/31-101 WLAN-Accesspoint, UP - Spannungsversorgung durch Netzspannung Firmware: Mit Download der Firmware gelten die folgenden Lizenzbedingungen 05.11.2014
539 8100-0-0356 8186/41 WLAN-Accesspoint PoE, UP - Spannungsversorgung durch Power over Ethernet Firmware: Mit Download der Firmware gelten die folgenden Lizenzbedingungen 05.11.2014
540 8300-0-0353 83221AP-611 Busch-free@homePanel 7" - Innenstation Video mit 17,8 cm (7") Touch-Display Mit Download der Firmware gelten die folgenden Lizenzbedingungen 31.10.2014
541 8300-0-0354 83221AP-625 Busch-free@homePanel 7" - Innenstation Video mit 17,8 cm (7") Touch-Display Mit Download der Firmware gelten die folgenden Lizenzbedingungen 31.10.2014
542 8136-0-0023 8136/09-811 Busch-ComfortPanel - Haussteuerung, Infotainment, Entertainment Lizenzbedingungen: Mit Download der Firmware gelten die folgenden Lizenzbedingungen 31.10.2014
543 8136-0-0025 8136/09-825 Busch-ComfortPanel - Haussteuerung, Infotainment, Entertainment Lizenzbedingungen: Mit Download der Firmware gelten die folgenden Lizenzbedingungen 31.10.2014
544 8136-0-0027 8136/12-811 Busch-ComfortPanel® 12.1" - Haussteuerung, Infotainment, Entertainment Lizenzbedingungen: Mit Download der Firmware gelten die folgenden Lizenzbedingungen 31.10.2014
545 8136-0-0029 8136/12-825 Busch-ComfortPanel® 12.1" - Haussteuerung, Infotainment, Entertainment Lizenzbedingungen: Mit Download der Firmware gelten die folgenden Lizenzbedingungen 31.10.2014
546 8300-0-0004 83220 AP-624 Busch-WelcomePanel® - Innenstation Video mit 17,8 cm (7") Touch-Display Firmware: Mit Download der Firmware gelten die folgenden Lizenzbedingungen 31.10.2014
547 8300-0-0005 83220 AP-681 Busch-WelcomePanel® - Innenstation Video mit 17,8 cm (7") Touch-Display Firmware: Mit Download der Firmware gelten die folgenden Lizenzbedingungen 31.10.2014
548 8300-0-0006 83220 AP-683 Busch-WelcomePanel® - Innenstation Video mit 17,8 cm (7") Touch-Display Firmware: Mit Download der Firmware gelten die folgenden Lizenzbedingungen 31.10.2014
549 6140-0-0028 6144/40 Jahreszeitschaltuhr (für DCF oder GPS vorbereitet) - 4-Kanal ETS3 Applikation 1.5 29.10.2014
550 6140-0-0028 6144/40 Jahreszeitschaltuhr (für DCF oder GPS vorbereitet) - 4-Kanal ETS4/ETS5 Applikation 1.5 29.10.2014
551 6310-0-0129 6344-24G-101 8,89 cm TFT-Farbdisplay mit Drehbedienelement - Busch-priOn® Firmware: Mit Download der Firmware gelten die folgenden Lizenzbedingungen 10.10.2014
552 6310-0-0173 6344-811-101 8,89 cm TFT-Farbdisplay mit Drehbedienelement - Busch-priOn® Firmware: Mit Download der Firmware gelten die folgenden Lizenzbedingungen 10.10.2014
553 6310-0-0128 6344-825-101 8,89 cm TFT-Farbdisplay mit Drehbedienelement - Busch-priOn® Firmware: Mit Download der Firmware gelten die folgenden Lizenzbedingungen 10.10.2014
554 6310-0-0126 6344-866-101 8,89 cm TFT-Farbdisplay mit Drehbedienelement - Busch-priOn® Firmware: Mit Download der Firmware gelten die folgenden Lizenzbedingungen 10.10.2014
555 6151-0-0241 6164/50 Lüftungsaktor, 3-stufig - 1-fach Aktor ETS4/ETS5 Applikation 1.0 16.09.2014
556 6151-0-0241 6164/50 Lüftungsaktor, 3-stufig - 1-fach Aktor ETS3 Applikation 1.0 16.09.2014
557 6151-0-0242 6164/51 Lüftungsaktor, 5-stufig - 2-fach Aktor ETS4/ETS5 Applikation 1.0 16.09.2014
558 6151-0-0242 6164/51 Lüftungsaktor, 5-stufig - 2-fach Aktor ETS3 Applikation 1.0 16.09.2014
559 8100-0-0356 8186/41 WLAN-Accesspoint PoE, UP - Spannungsversorgung durch Power over Ethernet Zusatzsoftware: Quellcode 2.0 05.03.2014
560 6198-0-0108 6197/40 DALI-Gateway - 8-fach Gateway ETS3 Applikation 1.1 28.02.2014
561 6198-0-0108 6197/40 DALI-Gateway - 8-fach Gateway ETS4/ETS5 Applikation 1.1 28.02.2014
562 6198-0-0110 6197/41 DALI-Gateway - 1-fach Gateway ETS3 Applikation 1.1 28.02.2014
563 6198-0-0110 6197/41 DALI-Gateway - 1-fach Gateway ETS4/ETS5 Applikation 1.1 28.02.2014
564 6198-0-0112 6197/44 DALI-Gateway mit Gruppenbildung - 1-fach Gateway ETS3 Applikation 1.3 28.02.2014
565 6198-0-0112 6197/44 DALI-Gateway mit Gruppenbildung - 1-fach Gateway ETS4/ETS5 Applikation 1.3 28.02.2014
566 8300-0-0004 83220 AP-624 Busch-WelcomePanel® - Innenstation Video mit 17,8 cm (7") Touch-Display Firmware 2.04 24.02.2014
567 6197-0-0032 6197/12-101 Universal-Dimmaktor 4x 210 W/VA bis 1x 840 W/VA - 1-4-fach ETS-Applikation für PowerTool 1.5 27.01.2014 Info
568 6197-0-0033 6197/13-101 Universal-Dimmaktor 4x 315 W/VA bis 1x 1260 W/VA - 1-4-fach ETS-Applikation für PowerTool 1.5 27.01.2014 Info
569 6197-0-0034 6197/14-101 Universal-Dimmaktor 6x 315 W/VA bis 1x 1890 W/VA - 1-6-fach ETS-Applikation für PowerTool 1.5 27.01.2014 Info
570 6197-0-0035 6197/15-101 Universal-Dimmaktor 4x 600 W/VA bis 1x 2400 W/VA - 1-4-fach ETS-Applikation für PowerTool 1.5 27.01.2014 Info
571 6310-0-0060 6920/13 UP-Power-Netzankoppler Zusatzsoftware: PowerTool 27.01.2014 Info
572 6136-0-0184 6136/100 C-102 Controlpanel - color ETS4/ETS5 Applikation 3.0 01.01.2014
573 6136-0-0184 6136/100 C-102 Controlpanel - color ETS3 Applikation 3.0 01.01.2014
574 6136-0-0186 6136/100 CB-102 Controlpanel B&O - BANG & OLUFSEN, color ETS4/ETS5 Applikation 3.0 01.01.2014
575 6136-0-0186 6136/100 CB-102 Controlpanel B&O - BANG & OLUFSEN, color ETS3 Applikation 3.0 01.01.2014
576 6900-0-1697 6936/100 C-102 Controlpanel - color ETS4/ETS5 Applikation 3.0 01.01.2014
577 6900-0-1697 6936/100 C-102 Controlpanel - color ETS3 Applikation 3.0 01.01.2014
578 6900-0-1698 6936/100 CB-102 Controlpanel B&O - BANG & OLUFSEN, color ETS4/ETS5 Applikation 3.0 01.01.2014
579 6900-0-1698 6936/100 CB-102 Controlpanel B&O - BANG & OLUFSEN, color ETS3 Applikation 3.0 01.01.2014
580 6151-0-0231 6194/22 Binärausgang, 16 AX - 8-fach ETS3 Applikation 3.2 16.10.2013
581 6120-0-0074 6120/12-101 Busankoppler Firmware 0.1.5 29.07.2013 Info
582 6115-0-0179 6125/01-81 Bedienelement 1-fach - mit beiliegendem Busankoppler Firmware 0.1.4 29.07.2013 Info
583 6115-0-0181 6125/01-83 Bedienelement 1-fach - mit beiliegendem Busankoppler Firmware 0.1.4 29.07.2013 Info
584 6115-0-0190 6125/01-884 Bedienelement 1-fach - mit beiliegendem Busankoppler Firmware 0.1.4 29.07.2013 Info
585 6115-0-0191 6125/01-885 Bedienelement 1-fach - mit beiliegendem Busankoppler Firmware 0.1.4 29.07.2013 Info
586 6116-0-0170 6126/01-81 Bedienelement, 2-fach - mit beiliegendem Busankoppler Firmware 0.1.4 29.07.2013 Info
587 6116-0-0171 6126/01-82 Bedienelement, 2-fach - mit beiliegendem Busankoppler Firmware 0.1.4 29.07.2013 Info
588 6116-0-0172 6126/01-83 Bedienelement, 2-fach - mit beiliegendem Busankoppler Firmware 0.1.4 29.07.2013 Info
589 6116-0-0173 6126/01-84 Bedienelement, 2-fach - mit beiliegendem Busankoppler Firmware 0.1.4 29.07.2013 Info
590 6116-0-0181 6126/01-884 Bedienelement, 2-fach - mit beiliegendem Busankoppler Firmware 0.1.4 29.07.2013 Info
591 6116-0-0182 6126/01-885 Bedienelement, 2-fach - mit beiliegendem Busankoppler Firmware 0.1.4 29.07.2013 Info
592 6117-0-0196 6127/01-81 Bedienelement, 4-fach - mit beiliegendem Busankoppler Firmware 0.1.4 29.07.2013 Info
593 6117-0-0197 6127/01-82 Bedienelement, 4-fach - mit beiliegendem Busankoppler Firmware 0.1.4 29.07.2013 Info
594 6117-0-0198 6127/01-83 Bedienelement, 4-fach - mit beiliegendem Busankoppler Firmware 0.1.4 29.07.2013 Info
595 6117-0-0199 6127/01-84 Bedienelement, 4-fach - mit beiliegendem Busankoppler Firmware 0.1.4 29.07.2013 Info
596 6117-0-0207 6127/01-884 Bedienelement, 4-fach - mit beiliegendem Busankoppler Firmware 0.1.4 29.07.2013 Info
597 6117-0-0208 6127/01-885 Bedienelement, 4-fach - mit beiliegendem Busankoppler Firmware 0.1.4 29.07.2013 Info
598 6115-0-0180 6125/01-82 Bedienelement 1-fach - mit beiliegendem Busankoppler Firmware 0.1.4 29.07.2013 Info
599 6115-0-0182 6125/01-84 Bedienelement 1-fach - mit beiliegendem Busankoppler Firmware 0.1.4 29.07.2013 Info
600 6115-0-0188 6125/01-803 Bedienelement 1-fach - mit beiliegendem Busankoppler Firmware 0.1.4 29.07.2013 Info
601 6116-0-0179 6126/01-803 Bedienelement, 2-fach - mit beiliegendem Busankoppler Firmware 0.1.4 29.07.2013 Info
602 6117-0-0205 6127/01-803 Bedienelement, 4-fach - mit beiliegendem Busankoppler Firmware 0.1.4 29.07.2013 Info
603 6115-0-0448 6125/01-896 Bedienelement 1-fach Busch-axcent® - mit beiliegendem Busankoppler Firmware 0.1.4 29.07.2013 Info
604 6115-0-0187 6125/01-866 Bedienelement 1-fach pur edelstahl - mit beiliegendem Busankoppler Firmware 0.1.4 29.07.2013 Info
605 6116-0-0223 6126/01-896 Bedienelement, 2-fach Busch-axcent® - mit beiliegendem Busankoppler Firmware 0.1.4 29.07.2013 Info
606 6116-0-0178 6126/01-866 Bedienelement, 2-fach pur edelstahl - mit beiliegendem Busankoppler Firmware 0.1.4 29.07.2013 Info
607 6117-0-0204 6127/01-866 Bedienelement, 4-fach pur edelstahl - mit beiliegendem Busankoppler Firmware 0.1.4 29.07.2013 Info
608 6189-0-0107 6195/39 Binärausgang, 6 A - 2-fach ETS3 Applikation 3.2 27.06.2013
609 6189-0-0107 6195/39 Binärausgang, 6 A - 2-fach ETS4/ETS5 Applikation 3.2 27.06.2013
610 6189-0-0108 6195/40 Binärausgang, 6 A - 4-fach ETS3 Applikation 3.2 27.06.2013
611 6189-0-0108 6195/40 Binärausgang, 6 A - 4-fach ETS4/ETS5 Applikation 3.2 27.06.2013
612 6189-0-0110 6195/42 Binärausgang, 6 A - 12-fach ETS3 Applikation 3.2 27.06.2013
613 6189-0-0110 6195/42 Binärausgang, 6 A - 12-fach ETS4/ETS5 Applikation 3.2 27.06.2013
614 6189-0-0109 6195/41 Binärausgang, 6 A - 8-fach ETS3 Applikation 3.2 27.06.2013
615 6189-0-0109 6195/41 Binärausgang, 6 A - 8-fach ETS4/ETS5 Applikation 3.2 27.06.2013
616 8136-0-0023 8136/09-811 Busch-ComfortPanel - Haussteuerung, Infotainment, Entertainment Zusatzsoftware: Makros für ETS 3 7.3.0.250 25.06.2013
617 8136-0-0023 8136/09-811 Busch-ComfortPanel - Haussteuerung, Infotainment, Entertainment ETS3 Applikation 3 25.06.2013
618 8136-0-0023 8136/09-811 Busch-ComfortPanel - Haussteuerung, Infotainment, Entertainment Zusatzsoftware: Installationsanleitung ETS App - Export for IP-Project 25.06.2013
619 8136-0-0025 8136/09-825 Busch-ComfortPanel - Haussteuerung, Infotainment, Entertainment Zusatzsoftware: Makros für ETS 3 7.3.0.250 25.06.2013
620 8136-0-0025 8136/09-825 Busch-ComfortPanel - Haussteuerung, Infotainment, Entertainment ETS3 Applikation 3 25.06.2013
621 8136-0-0025 8136/09-825 Busch-ComfortPanel - Haussteuerung, Infotainment, Entertainment Zusatzsoftware: Installationsanleitung ETS App - Export for IP-Project 25.06.2013
622 8136-0-0027 8136/12-811 Busch-ComfortPanel® 12.1" - Haussteuerung, Infotainment, Entertainment Zusatzsoftware: Makros für ETS 3 7.3.0.250 25.06.2013
623 8136-0-0027 8136/12-811 Busch-ComfortPanel® 12.1" - Haussteuerung, Infotainment, Entertainment ETS3 Applikation 3 25.06.2013
624 8136-0-0027 8136/12-811 Busch-ComfortPanel® 12.1" - Haussteuerung, Infotainment, Entertainment Zusatzsoftware: Installationsanleitung ETS App - Export for IP-Project 25.06.2013
625 8136-0-0029 8136/12-825 Busch-ComfortPanel® 12.1" - Haussteuerung, Infotainment, Entertainment Zusatzsoftware: Makros für ETS 3 7.3.0.250 25.06.2013
626 8136-0-0029 8136/12-825 Busch-ComfortPanel® 12.1" - Haussteuerung, Infotainment, Entertainment ETS3 Applikation 3 25.06.2013
627 8136-0-0029 8136/12-825 Busch-ComfortPanel® 12.1" - Haussteuerung, Infotainment, Entertainment Zusatzsoftware: Installationsanleitung ETS App - Export for IP-Project 25.06.2013
628 6198-0-0110 6197/41 DALI-Gateway - 1-fach Gateway Zusatzsoftware 0.3.0.7 17.06.2013
629 6198-0-0112 6197/44 DALI-Gateway mit Gruppenbildung - 1-fach Gateway Zusatzsoftware 0.3.0.7 17.06.2013
630 6198-0-0111 6197/43 DALI-Lichtregler - 1-fach Gateway Zusatzsoftware 0.3.0.7 17.06.2013
631 6198-0-0114 6174/40 DALI-Lichtregler, AP - 1-fach Gateway Zusatzsoftware 0.3.0.7 17.06.2013
632 6189-0-0103 6193/10 Raum Master, Basic, REG ETS3 Applikation 1.1 22.03.2013
633 6189-0-0104 6193/11 Raum Master, Premium, REG ETS3 Applikation 1.0 22.03.2013
634 6198-0-0111 6197/43 DALI-Lichtregler - 1-fach Gateway ETS3 Applikation 1.4 18.03.2013
635 6198-0-0114 6174/40 DALI-Lichtregler, AP - 1-fach Gateway ETS3 Applikation 1.4 18.03.2013
636 6189-0-0105 6193/12 I/O-Aktor, 4-fach, REG ETS3 Applikation 1.0 13.03.2013
637 6189-0-0106 6193/14 I/O-Aktor, 8-fach, REG ETS3 Applikation 1.0 13.03.2013
638 6151-0-0216 6196/20-102 Jalousieaktor, 6 A - 2 x 2-fach ETS3 Applikation 1.3 26.02.2013
639 6151-0-0219 6196/22-102 Jalousieaktor, 6 A mit "Vor-Ort-Bedienung" - 2-fach ETS3 Applikation 1.3 26.02.2013
640 6151-0-0239 6196/23-102 Rollladenaktor, 6 A - 2-fach ETS3 Applikation 1.3 26.02.2013
641 6151-0-0217 6196/40-102 Jalousieaktor, 6 A - 4-fach ETS3 Applikation 1.3 26.02.2013
642 6151-0-0220 6196/42-102 Jalousieaktor, 6 A mit "Vor-Ort-Bedienung" - 4-fach ETS3 Applikation 1.3 26.02.2013
643 6151-0-0222 6196/41-102 Jalousieaktor, 24 V, 6 A - 4-fach ETS3 Applikation 1.3 26.02.2013
644 6151-0-0223 6196/43-102 Rollladenaktor, 6 A - 4-fach ETS3 Applikation 1.3 26.02.2013
645 6151-0-0218 6196/80-102 Jalousieaktor, 6 A - 8-fach ETS3 Applikation 1.3 26.02.2013
646 6151-0-0221 6196/82-102 Jalousieaktor, 6 A mit "Vor-Ort-Bedienung" - 8-fach ETS3 Applikation 1.3 26.02.2013
647 6151-0-0224 6196/83-102 Rollladenaktor, 6 A - 8-fach ETS3 Applikation 1.3 26.02.2013
648 6151-0-0226 6194/11-101 Binärausgang, 16 AX mit Stromerkennung - 2-fach ETS3 Applikation 3.2 25.02.2013
649 6151-0-0227 6194/12-101 Binärausgang, 16 AX mit Stromerkennung - 4-fach ETS3 Applikation 3.2 25.02.2013
650 6151-0-0228 6194/13-101 Binärausgang, 16 AX mit Stromerkennung - 8-fach ETS3 Applikation 3.2 25.02.2013
651 6190-0-0042 6190/50 Analogeingang, AP - 2-fach ETS3 Applikation 1.0 14.02.2013
652 6151-0-0229 6194/20 Binärausgang, 16 AX - 2-fach ETS3 Applikation 3.2 02.02.2013
653 6151-0-0230 6194/21 Binärausgang, 16 AX - 4-fach ETS3 Applikation 3.2 02.02.2013
654 6151-0-0234 6194/14-101 Binärausgang, 16 AX - 12-fach ETS3 Applikation 3.2 02.02.2013
655 6151-0-0232 6194/18 Binärausgang, 16 AX mit Stromerkennung - 12-fach ETS3 Applikation 3.2 02.02.2013
656 6133-0-0200 6149/21 Inbetriebnahmeschnittstelle/-adapter Zusatzsoftware: PowerTool 1.2.55 01.02.2013 Info
657 6132-0-0311 6179/01-204 Busch-Wächter® 220 MasterLINE KNX ETS3 Applikation 1.0 01.02.2013 Info
658 6132-0-0311 6179/01-204 Busch-Wächter® 220 MasterLINE KNX ETS4/ETS5 Applikation 1.0 01.02.2013 Info
659 6132-0-0312 6179/01-208 Busch-Wächter® 220 MasterLINE KNX ETS3 Applikation 1.0 01.02.2013 Info
660 6132-0-0312 6179/01-208 Busch-Wächter® 220 MasterLINE KNX ETS4/ETS5 Applikation 1.0 01.02.2013 Info
661 6132-0-0315 6179/02-204 Busch-Wächter® 220 MasterLINE KNX Premium ETS3 Applikation 1.0 01.02.2013 Info
662 6132-0-0315 6179/02-204 Busch-Wächter® 220 MasterLINE KNX Premium ETS4/ETS5 Applikation 1.0 01.02.2013 Info
663 6132-0-0316 6179/02-208 Busch-Wächter® 220 MasterLINE KNX Premium ETS3 Applikation 1.0 01.02.2013 Info
664 6132-0-0316 6179/02-208 Busch-Wächter® 220 MasterLINE KNX Premium ETS4/ETS5 Applikation 1.0 01.02.2013 Info
665 6310-0-0059 6920/12 UP-Netzankopplung Zusatzsoftware: PowerTool 1.2.55 01.02.2013 Info
666 6900-0-1703 6920/40 Busch-Powernet® KNX Serien-/Jalousieaktor 2/1-fach, UP Zusatzsoftware: PowerTool 01.02.2013 Info
667 6156-0-0066 6188/15-101 Binäreingang, Kontaktabfrage - 4-fach ETS3 Applikation 1.3 13.12.2012
668 6156-0-0068 6188/19 Binäreingang, 10...230 V - 4-fach ETS3 Applikation 1.3 13.12.2012
669 6156-0-0067 6188/18-101 Binäreingang, Kontaktabfrage - 8-fach ETS3 Applikation 1.3 13.12.2012
670 6156-0-0069 6188/20 Binäreingang, 10...230 V - 8-fach ETS3 Applikation 1.3 13.12.2012
671 6189-0-0092 6195/30 Binärausgang, 6 A - 4-fach ETS3 Applikation 3.2 04.12.2012
672 6189-0-0093 6195/31 Binärausgang, 6 A - 8-fach ETS3 Applikation 3.2 04.12.2012
673 6189-0-0094 6195/32 Binärausgang, 6 A - 12-fach ETS3 Applikation 3.2 04.12.2012
674 6189-0-0095 6195/35 Binärausgang, 10 A - 2-fach ETS3 Applikation 3.2 04.12.2012
675 6189-0-0096 6195/36 Binärausgang, 10 A - 4-fach ETS3 Applikation 3.2 04.12.2012
676 6189-0-0097 6195/37 Binärausgang, 10 A - 8-fach ETS3 Applikation 3.2 04.12.2012
677 6189-0-0098 6195/38 Binärausgang, 10 A - 12-fach ETS3 Applikation 3.2 04.12.2012
678 6189-0-0099 6194/25 Binärausgang, 16 A - 2-fach ETS3 Applikation 3.2 04.12.2012
679 6189-0-0100 6194/26 Binärausgang, 16 A - 4-fach ETS3 Applikation 3.2 04.12.2012
680 6189-0-0101 6194/27 Binärausgang, 16 A - 8-fach ETS3 Applikation 3.2 04.12.2012
681 6189-0-0102 6194/28 Binärausgang, 16 A - 12-fach ETS3 Applikation 3.2 04.12.2012
682 6187-0-0028 6187-104 Koppler ETS3 Applikation 1.0 03.09.2012
683 6187-0-0028 6187-104 Koppler ETS4/ETS5 Applikation 1.0 03.09.2012
684 6151-0-0244 6151/11 U Schaltaktor, 16 A - 1-fach Aktor ETS3 Applikation 0.1 28.08.2012
685 6151-0-0244 6151/11 U Schaltaktor, 16 A - 1-fach Aktor ETS4/ETS5 Applikation 0.1 28.08.2012
686 6152-0-0039 6152/11 U Jalousieaktor - 1-fach Jalousieaktor ETS3 Applikation 1.1 28.08.2012
687 6152-0-0039 6152/11 U Jalousieaktor - 1-fach Jalousieaktor ETS4/ETS5 Applikation 1.1 28.08.2012
688 6151-0-0246 6164/11 U Heizungsaktor - 1-fach Aktor ETS3 Applikation 1.1 28.08.2012
689 6151-0-0246 6164/11 U Heizungsaktor - 1-fach Aktor ETS4/ETS5 Applikation 1.1 28.08.2012
690 6151-0-0248 6173/11 U Kombiaktor - 1x Jalousie/1x HKL ETS3 Applikation 1.1 28.08.2012
691 6151-0-0248 6173/11 U Kombiaktor - 1x Jalousie/1x HKL ETS4/ETS5 Applikation 1.1 28.08.2012
692 6151-0-0236 6164/44 Elektronischer Schaltaktor - 8-fach ETS3 Applikation 2.0 24.08.2012
693 6151-0-0236 6164/44 Elektronischer Schaltaktor - 8-fach ETS4/ETS5 Applikation 2.0 24.08.2012
694 6197-0-0032 6197/12-101 Universal-Dimmaktor 4x 210 W/VA bis 1x 840 W/VA - 1-4-fach Firmware 0.34 23.08.2012 Info
695 6197-0-0033 6197/13-101 Universal-Dimmaktor 4x 315 W/VA bis 1x 1260 W/VA - 1-4-fach Firmware 0.34 23.08.2012 Info
696 6197-0-0034 6197/14-101 Universal-Dimmaktor 6x 315 W/VA bis 1x 1890 W/VA - 1-6-fach Firmware 0.34 23.08.2012 Info
697 6197-0-0035 6197/15-101 Universal-Dimmaktor 4x 600 W/VA bis 1x 2400 W/VA - 1-4-fach Firmware 0.34 23.08.2012 Info
698 6117-0-0248 6127/01-896 Bedienelement, 4-fach Busch-axcent® - mit beiliegendem Busankoppler Firmware 0.1.4 07.08.2012 Info
699 6132-0-0259 6122/02-81 Busch-Wächter® 180 UP Sensor Komfort II future® linear - mit Multilinse ETS-Applikation für PowerTool 3.0 06.08.2012 Info
700 6132-0-0259 6122/02-81 Busch-Wächter® 180 UP Sensor Komfort II future® linear - mit Multilinse ETS4/ETS5 Applikation 3.0 06.08.2012
701 6132-0-0260 6122/02-82 Busch-Wächter® 180 UP Sensor Komfort II future® linear - mit Multilinse ETS-Applikation für PowerTool 3.0 06.08.2012 Info
702 6132-0-0260 6122/02-82 Busch-Wächter® 180 UP Sensor Komfort II future® linear - mit Multilinse ETS4/ETS5 Applikation 3.0 06.08.2012
703 6132-0-0261 6122/02-83 Busch-Wächter® 180 UP Sensor Komfort II future® linear - mit Multilinse ETS-Applikation für PowerTool 3.0 06.08.2012 Info
704 6132-0-0261 6122/02-83 Busch-Wächter® 180 UP Sensor Komfort II future® linear - mit Multilinse ETS4/ETS5 Applikation 3.0 06.08.2012
705 6132-0-0262 6122/02-84 Busch-Wächter® 180 UP Sensor Komfort II future® linear - mit Multilinse ETS-Applikation für PowerTool 3.0 06.08.2012 Info
706 6132-0-0262 6122/02-84 Busch-Wächter® 180 UP Sensor Komfort II future® linear - mit Multilinse ETS4/ETS5 Applikation 3.0 06.08.2012
707 6132-0-0270 6122/02-884 Busch-Wächter® 180 UP Sensor Komfort II future® linear - mit Multilinse ETS-Applikation für PowerTool 3.0 06.08.2012 Info
708 6132-0-0270 6122/02-884 Busch-Wächter® 180 UP Sensor Komfort II future® linear - mit Multilinse ETS4/ETS5 Applikation 3.0 06.08.2012
709 6132-0-0271 6122/02-885 Busch-Wächter® 180 UP Sensor Komfort II future® linear - mit Multilinse ETS-Applikation für PowerTool 3.0 06.08.2012 Info
710 6132-0-0271 6122/02-885 Busch-Wächter® 180 UP Sensor Komfort II future® linear - mit Multilinse ETS4/ETS5 Applikation 3.0 06.08.2012
711 6132-0-0268 6122/02-803 Busch-Wächter® 180 UP Sensor Komfort II solo® - mit Multilinse ETS-Applikation für PowerTool 3.0 06.08.2012 Info
712 6132-0-0268 6122/02-803 Busch-Wächter® 180 UP Sensor Komfort II solo® - mit Multilinse ETS4/ETS5 Applikation 3.0 06.08.2012
713 6132-0-0323 6122/02-896 Busch-Wächter® 180 UP Sensor Komfort II Busch-axcent® - mit Multilinse ETS-Applikation für PowerTool 3.0 06.08.2012 Info
714 6132-0-0323 6122/02-896 Busch-Wächter® 180 UP Sensor Komfort II Busch-axcent® - mit Multilinse ETS-Applikation für PowerTool 3.0 06.08.2012
715 6132-0-0267 6122/02-866 Busch-Wächter® 180 UP Sensor Komfort II pur edelstahl - mit Multilinse ETS-Applikation für PowerTool 3.0 06.08.2012 Info
716 6132-0-0267 6122/02-866 Busch-Wächter® 180 UP Sensor Komfort II pur edelstahl - mit Multilinse ETS4/ETS5 Applikation 3.0 06.08.2012
717 6198-0-0113 6198/19 Energiemodul REG - 3-fach ETS3 Applikation 1.0 02.08.2012
718 6151-0-0235 6164/40-101 Elektronischer Schaltaktor - 4-fach ETS3 Applikation 2.0 27.07.2012
719 6151-0-0205 6197/22 Schalt-/Dimmaktor - 2-fach ETS3 Applikation 1.2 13.07.2012
720 6151-0-0206 6197/23 Schalt-/Dimmaktor - 4-fach ETS3 Applikation 1.2 13.07.2012
721 6151-0-0207 6197/24 Schalt-/Dimmaktor - 8-fach ETS3 Applikation 1.2 13.07.2012
722 6151-0-0208 6197/70 Lichtregler - 2-fach ETS3 Applikation 1.2 13.07.2012
723 6136-0-0184 6136/100 C-102 Controlpanel - color Firmware: 6x36/xxx-102 3.0.6 12.07.2012
724 6136-0-0186 6136/100 CB-102 Controlpanel B&O - BANG & OLUFSEN, color Firmware: 6x36/xxx-102 3.0.6 12.07.2012
725 6310-0-0059 6920/12 UP-Netzankopplung Firmware 0.27 12.07.2012 Info
726 6900-0-1697 6936/100 C-102 Controlpanel - color Firmware: 6x36/xxx-102 3.0.6 12.07.2012
727 6900-0-1698 6936/100 CB-102 Controlpanel B&O - BANG & OLUFSEN, color Firmware: 6x36/xxx-102 3.0.6 12.07.2012
728 6770-0-0001 6770 WaveLine Medienkonverter TP-RF - KNX Twisted Pair/ KNX Funk ETS3 Applikation 1.0 03.01.2012
729 6198-0-0109 6198/11 Logikmodul ETS3 Applikation 2.1 18.11.2011
730 6151-0-0237 6164/45 Ventilantrieb-Aktor - 6-fach ETS3 Applikation 1.0 18.10.2011
731 6151-0-0238 6164/46 Ventilantrieb-Aktor - 12-fach ETS3 Applikation 1.0 18.10.2011
732 6190-0-0037 6190/40-101 Wetterstation - 4-kanalig ETS2 Applikation 2.1 12.08.2011
733 6190-0-0037 6190/40-101 Wetterstation - 4-kanalig ETS3 Applikation 2.1 12.08.2011
734 6198-0-0114 6174/40 DALI-Lichtregler, AP - 1-fach Gateway Zusatzsoftware 1.1 12.08.2011
735 6132-0-0259 6122/02-81 Busch-Wächter® 180 UP Sensor Komfort II future® linear - mit Multilinse ETS-Applikation für PowerTool 1.0 11.07.2011 Info
736 6132-0-0259 6122/02-81 Busch-Wächter® 180 UP Sensor Komfort II future® linear - mit Multilinse ETS4/ETS5 Applikation 1.0 11.07.2011
737 6132-0-0260 6122/02-82 Busch-Wächter® 180 UP Sensor Komfort II future® linear - mit Multilinse ETS-Applikation für PowerTool 1.0 11.07.2011 Info
738 6132-0-0260 6122/02-82 Busch-Wächter® 180 UP Sensor Komfort II future® linear - mit Multilinse ETS4/ETS5 Applikation 1.0 11.07.2011
739 6132-0-0261 6122/02-83 Busch-Wächter® 180 UP Sensor Komfort II future® linear - mit Multilinse ETS-Applikation für PowerTool 1.0 11.07.2011 Info
740 6132-0-0261 6122/02-83 Busch-Wächter® 180 UP Sensor Komfort II future® linear - mit Multilinse ETS4/ETS5 Applikation 1.0 11.07.2011
741 6132-0-0262 6122/02-84 Busch-Wächter® 180 UP Sensor Komfort II future® linear - mit Multilinse ETS-Applikation für PowerTool 1.0 11.07.2011 Info
742 6132-0-0262 6122/02-84 Busch-Wächter® 180 UP Sensor Komfort II future® linear - mit Multilinse ETS4/ETS5 Applikation 1.0 11.07.2011
743 6132-0-0270 6122/02-884 Busch-Wächter® 180 UP Sensor Komfort II future® linear - mit Multilinse ETS-Applikation für PowerTool 1.0 11.07.2011 Info
744 6132-0-0270 6122/02-884 Busch-Wächter® 180 UP Sensor Komfort II future® linear - mit Multilinse ETS4/ETS5 Applikation 1.0 11.07.2011
745 6132-0-0271 6122/02-885 Busch-Wächter® 180 UP Sensor Komfort II future® linear - mit Multilinse ETS-Applikation für PowerTool 1.0 11.07.2011 Info
746 6132-0-0271 6122/02-885 Busch-Wächter® 180 UP Sensor Komfort II future® linear - mit Multilinse ETS4/ETS5 Applikation 1.0 11.07.2011
747 6132-0-0268 6122/02-803 Busch-Wächter® 180 UP Sensor Komfort II solo® - mit Multilinse ETS-Applikation für PowerTool 1.0 11.07.2011 Info
748 6132-0-0268 6122/02-803 Busch-Wächter® 180 UP Sensor Komfort II solo® - mit Multilinse ETS4/ETS5 Applikation 1.0 11.07.2011
749 6132-0-0323 6122/02-896 Busch-Wächter® 180 UP Sensor Komfort II Busch-axcent® - mit Multilinse ETS-Applikation für PowerTool 1.0 11.07.2011 Info
750 6132-0-0323 6122/02-896 Busch-Wächter® 180 UP Sensor Komfort II Busch-axcent® - mit Multilinse ETS-Applikation für PowerTool 1.0 11.07.2011
751 6132-0-0267 6122/02-866 Busch-Wächter® 180 UP Sensor Komfort II pur edelstahl - mit Multilinse ETS-Applikation für PowerTool 1.0 11.07.2011 Info
752 6132-0-0267 6122/02-866 Busch-Wächter® 180 UP Sensor Komfort II pur edelstahl - mit Multilinse ETS4/ETS5 Applikation 1.0 11.07.2011
753 6310-0-0050 6353/20-860 Beschriftungssymbol Beleuchtung ETS-Applikation für PowerTool 1.3 04.07.2011 Info
754 6310-0-0051 6353/30-860 Beschriftungssymbol Jalousie ETS-Applikation für PowerTool 1.3 04.07.2011 Info
755 6310-0-0052 6353/40-860 Beschriftungssymbol Raumtemperatur ETS-Applikation für PowerTool 1.3 04.07.2011 Info
756 6310-0-0053 6353/50-860 Beschriftungssymbol Szene ETS-Applikation für PowerTool 1.3 04.07.2011 Info
757 6900-0-1703 6920/40 Busch-Powernet® KNX Serien-/Jalousieaktor 2/1-fach, UP ETS3 Applikation 1.0 04.07.2011 Info
758 6320-0-0001 6320/10-20 Bedienelement 1/2-fach, mit Infrarotschnittstelle alpha - Busch-triton® ETS3 Applikation 1.0 22.03.2011
759 6320-0-0001 6320/10-20 Bedienelement 1/2-fach, mit Infrarotschnittstelle alpha - Busch-triton® ETS4/ETS5 Applikation 1.0 22.03.2011
760 6320-0-0003 6320/10-24G Bedienelement 1/2-fach, mit Infrarotschnittstelle alpha - Busch-triton® ETS3 Applikation 1.0 22.03.2011
761 6320-0-0003 6320/10-24G Bedienelement 1/2-fach, mit Infrarotschnittstelle alpha - Busch-triton® ETS4/ETS5 Applikation 1.0 22.03.2011
762 6320-0-0009 6320/10-260 Bedienelement 1/2-fach, mit Infrarotschnittstelle alpha - Busch-triton® ETS3 Applikation 1.0 22.03.2011
763 6320-0-0009 6320/10-260 Bedienelement 1/2-fach, mit Infrarotschnittstelle alpha - Busch-triton® ETS4/ETS5 Applikation 1.0 22.03.2011
764 6320-0-0005 6320/10-79 Bedienelement 1/2-fach, mit Infrarotschnittstelle impuls - Busch-triton® ETS3 Applikation 1.0 22.03.2011
765 6320-0-0005 6320/10-79 Bedienelement 1/2-fach, mit Infrarotschnittstelle impuls - Busch-triton® ETS4/ETS5 Applikation 1.0 22.03.2011
766 6320-0-0007 6320/10-83 Bedienelement 1/2-fach, mit Infrarotschnittstelle future® linear - Busch-triton® ETS3 Applikation 1.0 22.03.2011
767 6320-0-0007 6320/10-83 Bedienelement 1/2-fach, mit Infrarotschnittstelle future® linear - Busch-triton® ETS4/ETS5 Applikation 1.0 22.03.2011
768 6320-0-0011 6320/30-20 Bedienelement 3/6-fach, mit Infrarotschnittstelle alpha - Busch-triton® ETS3 Applikation 1.0 22.03.2011
769 6320-0-0011 6320/30-20 Bedienelement 3/6-fach, mit Infrarotschnittstelle alpha - Busch-triton® ETS4/ETS5 Applikation 1.0 22.03.2011
770 6320-0-0013 6320/30-24G Bedienelement 3/6-fach, mit Infrarotschnittstelle alpha - Busch-triton® ETS3 Applikation 1.0 22.03.2011
771 6320-0-0013 6320/30-24G Bedienelement 3/6-fach, mit Infrarotschnittstelle alpha - Busch-triton® ETS4/ETS5 Applikation 1.0 22.03.2011
772 6320-0-0019 6320/30-260 Bedienelement 3/6-fach, mit Infrarotschnittstelle alpha - Busch-triton® ETS3 Applikation 1.0 22.03.2011
773 6320-0-0019 6320/30-260 Bedienelement 3/6-fach, mit Infrarotschnittstelle alpha - Busch-triton® ETS4/ETS5 Applikation 1.0 22.03.2011
774 6320-0-0015 6320/30-79 Bedienelement 3/6-fach, mit Infrarotschnittstelle impuls - Busch-triton® ETS3 Applikation 1.0 22.03.2011
775 6320-0-0015 6320/30-79 Bedienelement 3/6-fach, mit Infrarotschnittstelle impuls - Busch-triton® ETS4/ETS5 Applikation 1.0 22.03.2011
776 6320-0-0017 6320/30-83 Bedienelement 3/6-fach, mit Infrarotschnittstelle future® linear - Busch-triton® ETS3 Applikation 1.0 22.03.2011
777 6320-0-0017 6320/30-83 Bedienelement 3/6-fach, mit Infrarotschnittstelle future® linear - Busch-triton® ETS4/ETS5 Applikation 1.0 22.03.2011
778 6320-0-0031 6320/50-20 Bedienelement 5/10-fach, mit Infrarotschnittstelle alpha - Busch-triton® ETS3 Applikation 1.0 22.03.2011
779 6320-0-0031 6320/50-20 Bedienelement 5/10-fach, mit Infrarotschnittstelle alpha - Busch-triton® ETS4/ETS5 Applikation 1.0 22.03.2011
780 6320-0-0033 6320/50-24G Bedienelement 5/10-fach, mit Infrarotschnittstelle alpha - Busch-triton® ETS3 Applikation 1.0 22.03.2011
781 6320-0-0033 6320/50-24G Bedienelement 5/10-fach, mit Infrarotschnittstelle alpha - Busch-triton® ETS4/ETS5 Applikation 1.0 22.03.2011
782 6320-0-0039 6320/50-260 Bedienelement 5/10-fach, mit Infrarotschnittstelle alpha - Busch-triton® ETS3 Applikation 1.0 22.03.2011
783 6320-0-0039 6320/50-260 Bedienelement 5/10-fach, mit Infrarotschnittstelle alpha - Busch-triton® ETS4/ETS5 Applikation 1.0 22.03.2011
784 6320-0-0035 6320/50-79 Bedienelement 5/10-fach, mit Infrarotschnittstelle impuls - Busch-triton® ETS3 Applikation 1.0 22.03.2011
785 6320-0-0035 6320/50-79 Bedienelement 5/10-fach, mit Infrarotschnittstelle impuls - Busch-triton® ETS4/ETS5 Applikation 1.0 22.03.2011
786 6320-0-0037 6320/50-83 Bedienelement 5/10-fach, mit Infrarotschnittstelle future® linear - Busch-triton® ETS3 Applikation 1.0 22.03.2011
787 6320-0-0037 6320/50-83 Bedienelement 5/10-fach, mit Infrarotschnittstelle future® linear - Busch-triton® ETS4/ETS5 Applikation 1.0 22.03.2011
788 6151-0-0233 6194/19 Energieaktor 16A - 3-fach ETS2 Applikation 1.0 18.03.2011
789 6151-0-0233 6194/19 Energieaktor 16A - 3-fach ETS3 Applikation 1.0 18.03.2011
790 6115-0-0193 6125/02-81 Bedienelement, 1/2-fach - Multifunktion/Farbkonzept ETS-Applikation für PowerTool 1.0 24.01.2011 Info
791 6115-0-0193 6125/02-81 Bedienelement, 1/2-fach - Multifunktion/Farbkonzept ETS4/ETS5 Applikation 1.0 24.01.2011 Info
792 6115-0-0194 6125/02-82 Bedienelement, 1/2-fach - Multifunktion/Farbkonzept ETS-Applikation für PowerTool 1.0 24.01.2011 Info
793 6115-0-0194 6125/02-82 Bedienelement, 1/2-fach - Multifunktion/Farbkonzept ETS4/ETS5 Applikation 1.0 24.01.2011 Info
794 6116-0-0183 6126/02-81 Bedienelement, 2/4-fach - Multifunktion/Farbkonzept ETS-Applikation für PowerTool 1.0 24.01.2011 Info
795 6116-0-0184 6126/02-82 Bedienelement, 2/4-fach - Multifunktion/Farbkonzept ETS-Applikation für PowerTool 1.0 24.01.2011 Info
796 6134-0-0257 6128/01-81 Bedienelement 2/4-fach, mit RTR - Multifunktion/Farbkonzept ETS-Applikation für PowerTool 1.0 24.01.2011 Info
797 6134-0-0258 6128/01-82 Bedienelement 2/4-fach, mit RTR - Multifunktion/Farbkonzept ETS-Applikation für PowerTool 1.0 24.01.2011 Info
798 6117-0-0209 6127/02-81 Bedienelement, 4/8-fach - Multifunktion/Farbkonzept ETS-Applikation für PowerTool 1.0 24.01.2011 Info
799 6117-0-0210 6127/02-82 Bedienelement, 4/8-fach - Multifunktion/Farbkonzept ETS-Applikation für PowerTool 1.0 24.01.2011 Info
800 6115-0-0195 6125/02-83 Bedienelement, 1/2-fach future® linear - Multifunktion/Farbkonzept ETS-Applikation für PowerTool 1.0 24.01.2011 Info
801 6115-0-0195 6125/02-83 Bedienelement, 1/2-fach future® linear - Multifunktion/Farbkonzept ETS4/ETS5 Applikation 1.0 24.01.2011 Info
802 6115-0-0196 6125/02-84 Bedienelement, 1/2-fach future® linear - Multifunktion/Farbkonzept ETS-Applikation für PowerTool 1.0 24.01.2011 Info
803 6115-0-0196 6125/02-84 Bedienelement, 1/2-fach future® linear - Multifunktion/Farbkonzept ETS4/ETS5 Applikation 1.0 24.01.2011 Info
804 6115-0-0203 6125/02-884 Bedienelement, 1/2-fach future® linear - Multifunktion/Farbkonzept ETS-Applikation für PowerTool 1.0 24.01.2011 Info
805 6115-0-0203 6125/02-884 Bedienelement, 1/2-fach future® linear - Multifunktion/Farbkonzept ETS4/ETS5 Applikation 1.0 24.01.2011 Info
806 6115-0-0204 6125/02-885 Bedienelement, 1/2-fach future® linear - Multifunktion/Farbkonzept ETS-Applikation für PowerTool 1.0 24.01.2011 Info
807 6115-0-0204 6125/02-885 Bedienelement, 1/2-fach future® linear - Multifunktion/Farbkonzept ETS4/ETS5 Applikation 1.0 24.01.2011 Info
808 6115-0-0201 6125/02-803 Bedienelement, 1/2-fach solo® - Multifunktion/Farbkonzept ETS-Applikation für PowerTool 1.0 24.01.2011 Info
809 6115-0-0201 6125/02-803 Bedienelement, 1/2-fach solo® - Multifunktion/Farbkonzept ETS4/ETS5 Applikation 1.0 24.01.2011 Info
810 6115-0-0450 6125/02-896 Bedienelement, 1/2-fach Busch-axcent® - Multifunktion/Farbkonzept ETS-Applikation für PowerTool 1.0 24.01.2011 Info
811 6115-0-0450 6125/02-896 Bedienelement, 1/2-fach Busch-axcent® - Multifunktion/Farbkonzept ETS4/ETS5 Applikation 1.0 24.01.2011 Info
812 6115-0-0200 6125/02-866 Bedienelement, 1/2-fach pur edelstahl - Multifunktion/Farbkonzept ETS-Applikation für PowerTool 1.0 24.01.2011 Info
813 6115-0-0200 6125/02-866 Bedienelement, 1/2-fach pur edelstahl - Multifunktion/Farbkonzept ETS4/ETS5 Applikation 1.0 24.01.2011 Info
814 6116-0-0185 6126/02-83 Bedienelement, 2/4-fach future® linear - Multifunktion/Farbkonzept ETS-Applikation für PowerTool 1.0 24.01.2011 Info
815 6116-0-0186 6126/02-84 Bedienelement, 2/4-fach future® linear - Multifunktion/Farbkonzept ETS-Applikation für PowerTool 1.0 24.01.2011 Info
816 6116-0-0193 6126/02-884 Bedienelement, 2/4-fach future® linear - Multifunktion/Farbkonzept ETS-Applikation für PowerTool 1.0 24.01.2011 Info
817 6116-0-0194 6126/02-885 Bedienelement, 2/4-fach future® linear - Multifunktion/Farbkonzept ETS-Applikation für PowerTool 1.0 24.01.2011 Info
818 6116-0-0191 6126/02-803 Bedienelement, 2/4-fach solo® - Multifunktion/Farbkonzept ETS-Applikation für PowerTool 1.0 24.01.2011 Info
819 6116-0-0225 6126/02-896 Bedienelement, 2/4-fach Busch-axcent® - Multifunktion/Farbkonzept ETS-Applikation für PowerTool 1.0 24.01.2011 Info
820 6116-0-0190 6126/02-866 Bedienelement, 2/4-fach pur edelstahl - Multifunktion/Farbkonzept ETS-Applikation für PowerTool 1.0 24.01.2011 Info
821 6134-0-0259 6128/01-83 Bedienelement 2/4-fach, mit RTR future® linear - Multifunktion/Farbkonzept ETS-Applikation für PowerTool 1.0 24.01.2011 Info
822 6134-0-0260 6128/01-84 Bedienelement 2/4-fach, mit RTR future® linear - Multifunktion/Farbkonzept ETS-Applikation für PowerTool 1.0 24.01.2011 Info
823 6134-0-0268 6128/01-884 Bedienelement 2/4-fach, mit RTR future® linear - Multifunktion/Farbkonzept ETS-Applikation für PowerTool 1.0 24.01.2011 Info
824 6134-0-0269 6128/01-885 Bedienelement 2/4-fach, mit RTR future® linear - Multifunktion/Farbkonzept ETS-Applikation für PowerTool 1.0 24.01.2011 Info
825 6134-0-0266 6128/01-803 Bedienelement 2/4-fach, mit RTR solo® - Multifunktion/Farbkonzept ETS-Applikation für PowerTool 1.0 24.01.2011 Info
826 6134-0-0305 6128/01-896 Bedienelement 2/4-fach, mit RTR Busch-axcent® - Multifunktion/Farbkonzept ETS-Applikation für PowerTool 1.0 24.01.2011 Info
827 6134-0-0305 6128/01-896 Bedienelement 2/4-fach, mit RTR Busch-axcent® - Multifunktion/Farbkonzept ETS-Applikation für PowerTool 1.0 24.01.2011 Info
828 6134-0-0265 6128/01-866 Bedienelement 2/4-fach, mit RTR pur edelstahl - Multifunktion/Farbkonzept ETS-Applikation für PowerTool 1.0 24.01.2011 Info
829 6135-0-0142 6129/01-81 Bedienelement 3/6-fach, mit IR-Schnittstelle future® linear - Multifunktion/Farbkonzept ETS-Applikation für PowerTool 1.0 24.01.2011 Info
830 6135-0-0143 6129/01-82 Bedienelement 3/6-fach, mit IR-Schnittstelle future® linear - Multifunktion/Farbkonzept ETS-Applikation für PowerTool 1.0 24.01.2011 Info
831 6135-0-0144 6129/01-83 Bedienelement 3/6-fach, mit IR-Schnittstelle future® linear - Multifunktion/Farbkonzept ETS-Applikation für PowerTool 1.0 24.01.2011 Info
832 6135-0-0145 6129/01-84 Bedienelement 3/6-fach, mit IR-Schnittstelle future® linear - Multifunktion/Farbkonzept ETS-Applikation für PowerTool 1.0 24.01.2011 Info
833 6135-0-0153 6129/01-884 Bedienelement 3/6-fach, mit IR-Schnittstelle future® linear - Multifunktion/Farbkonzept ETS-Applikation für PowerTool 1.0 24.01.2011 Info
834 6135-0-0154 6129/01-885 Bedienelement 3/6-fach, mit IR-Schnittstelle future® linear - Multifunktion/Farbkonzept ETS-Applikation für PowerTool 1.0 24.01.2011 Info
835 6135-0-0151 6129/01-803 Bedienelement 3/6-fach, mit IR-Schnittstelle solo® - Multifunktion/Farbkonzept ETS-Applikation für PowerTool 1.0 24.01.2011 Info
836 6135-0-0169 6129/01-896 Bedienelement 3/6-fach, mit IR-Schnittstelle Busch-axcent® - Multifunktion/Farbkonzept ETS-Applikation für PowerTool 1.0 24.01.2011 Info
837 6135-0-0150 6129/01-866 Bedienelement 3/6-fach, mit IR-Schnittstelle pur edelstahl - Multifunktion/Farbkonzept ETS-Applikation für PowerTool 1.0 24.01.2011 Info
838 6117-0-0211 6127/02-83 Bedienelement, 4/8-fach future® linear - Multifunktion/Farbkonzept ETS-Applikation für PowerTool 1.0 24.01.2011 Info
839 6117-0-0212 6127/02-84 Bedienelement, 4/8-fach future® linear - Multifunktion/Farbkonzept ETS-Applikation für PowerTool 1.0 24.01.2011 Info
840 6117-0-0219 6127/02-884 Bedienelement, 4/8-fach future® linear - Multifunktion/Farbkonzept ETS-Applikation für PowerTool 1.0 24.01.2011 Info
841 6117-0-0220 6127/02-885 Bedienelement, 4/8-fach future® linear - Multifunktion/Farbkonzept ETS-Applikation für PowerTool 1.0 24.01.2011 Info
842 6117-0-0217 6127/02-803 Bedienelement, 4/8-fach solo® - Multifunktion/Farbkonzept ETS-Applikation für PowerTool 1.0 24.01.2011 Info
843 6117-0-0250 6127/02-896 Bedienelement, 4/8-fach Busch-axcent® - Multifunktion/Farbkonzept ETS-Applikation für PowerTool 1.0 24.01.2011 Info
844 6117-0-0216 6127/02-866 Bedienelement, 4/8-fach pur edelstahl - Multifunktion/Farbkonzept ETS-Applikation für PowerTool 1.0 24.01.2011 Info
845 6134-0-0244 6124/01-81 Raumtemperaturregler future® linear - Heiz-/Kühlbetrieb/Farbkonzept ETS-Applikation für PowerTool 1.0 24.01.2011 Info
846 6134-0-0245 6124/01-82 Raumtemperaturregler future® linear - Heiz-/Kühlbetrieb/Farbkonzept ETS-Applikation für PowerTool 1.0 24.01.2011 Info
847 6134-0-0246 6124/01-83 Raumtemperaturregler future® linear - Heiz-/Kühlbetrieb/Farbkonzept ETS-Applikation für PowerTool 1.0 24.01.2011 Info
848 6134-0-0247 6124/01-84 Raumtemperaturregler future® linear - Heiz-/Kühlbetrieb/Farbkonzept ETS-Applikation für PowerTool 1.0 24.01.2011 Info
849 6134-0-0255 6124/01-884 Raumtemperaturregler future® linear - Heiz-/Kühlbetrieb/Farbkonzept ETS-Applikation für PowerTool 1.0 24.01.2011 Info
850 6134-0-0256 6124/01-885 Raumtemperaturregler future® linear - Heiz-/Kühlbetrieb/Farbkonzept ETS-Applikation für PowerTool 1.0 24.01.2011 Info
851 6134-0-0253 6124/01-803 Raumtemperaturregler solo® - Heiz-/Kühlbetrieb/Farbkonzept ETS-Applikation für PowerTool 1.0 24.01.2011 Info
852 6134-0-0303 6124/01-896 Raumtemperaturregler Busch-axcent® - Heiz-/Kühlbetrieb/Farbkonzept ETS-Applikation für PowerTool 1.0 24.01.2011 Info
853 6134-0-0252 6124/01-866 Raumtemperaturregler pur edelstahl - Heiz-/Kühlbetrieb/Farbkonzept ETS-Applikation für PowerTool 1.0 24.01.2011 Info
854 6115-0-0179 6125/01-81 Bedienelement 1-fach - mit beiliegendem Busankoppler ETS-Applikation für PowerTool 1.0 24.01.2011 Info
855 6115-0-0181 6125/01-83 Bedienelement 1-fach - mit beiliegendem Busankoppler ETS-Applikation für PowerTool 1.0 24.01.2011 Info
856 6115-0-0190 6125/01-884 Bedienelement 1-fach - mit beiliegendem Busankoppler ETS-Applikation für PowerTool 1.0 24.01.2011 Info
857 6115-0-0191 6125/01-885 Bedienelement 1-fach - mit beiliegendem Busankoppler ETS-Applikation für PowerTool 1.0 24.01.2011 Info
858 6116-0-0170 6126/01-81 Bedienelement, 2-fach - mit beiliegendem Busankoppler ETS-Applikation für PowerTool 1.0 24.01.2011 Info
859 6116-0-0171 6126/01-82 Bedienelement, 2-fach - mit beiliegendem Busankoppler ETS-Applikation für PowerTool 1.0 24.01.2011 Info
860 6116-0-0172 6126/01-83 Bedienelement, 2-fach - mit beiliegendem Busankoppler ETS-Applikation für PowerTool 1.0 24.01.2011 Info
861 6116-0-0173 6126/01-84 Bedienelement, 2-fach - mit beiliegendem Busankoppler ETS-Applikation für PowerTool 1.0 24.01.2011 Info
862 6116-0-0181 6126/01-884 Bedienelement, 2-fach - mit beiliegendem Busankoppler ETS-Applikation für PowerTool 1.0 24.01.2011 Info
863 6116-0-0182 6126/01-885 Bedienelement, 2-fach - mit beiliegendem Busankoppler ETS-Applikation für PowerTool 1.0 24.01.2011 Info
864 6117-0-0196 6127/01-81 Bedienelement, 4-fach - mit beiliegendem Busankoppler ETS-Applikation für PowerTool 1.0 24.01.2011 Info
865 6117-0-0197 6127/01-82 Bedienelement, 4-fach - mit beiliegendem Busankoppler ETS-Applikation für PowerTool 1.0 24.01.2011 Info
866 6117-0-0198 6127/01-83 Bedienelement, 4-fach - mit beiliegendem Busankoppler ETS-Applikation für PowerTool 1.0 24.01.2011 Info
867 6117-0-0199 6127/01-84 Bedienelement, 4-fach - mit beiliegendem Busankoppler ETS-Applikation für PowerTool 1.0 24.01.2011 Info
868 6117-0-0207 6127/01-884 Bedienelement, 4-fach - mit beiliegendem Busankoppler ETS-Applikation für PowerTool 1.0 24.01.2011 Info
869 6117-0-0208 6127/01-885 Bedienelement, 4-fach - mit beiliegendem Busankoppler ETS-Applikation für PowerTool 1.0 24.01.2011 Info
870 6115-0-0180 6125/01-82 Bedienelement 1-fach - mit beiliegendem Busankoppler ETS-Applikation für PowerTool 1.0 24.01.2011 Info
871 6115-0-0182 6125/01-84 Bedienelement 1-fach - mit beiliegendem Busankoppler ETS-Applikation für PowerTool 1.0 24.01.2011 Info
872 6115-0-0188 6125/01-803 Bedienelement 1-fach - mit beiliegendem Busankoppler ETS-Applikation für PowerTool 1.0 24.01.2011 Info
873 6116-0-0179 6126/01-803 Bedienelement, 2-fach - mit beiliegendem Busankoppler ETS-Applikation für PowerTool 1.0 24.01.2011 Info
874 6117-0-0205 6127/01-803 Bedienelement, 4-fach - mit beiliegendem Busankoppler ETS-Applikation für PowerTool 1.0 24.01.2011 Info
875 6115-0-0448 6125/01-896 Bedienelement 1-fach Busch-axcent® - mit beiliegendem Busankoppler ETS-Applikation für PowerTool 1.0 24.01.2011 Info
876 6115-0-0187 6125/01-866 Bedienelement 1-fach pur edelstahl - mit beiliegendem Busankoppler ETS-Applikation für PowerTool 1.0 24.01.2011 Info
877 6116-0-0223 6126/01-896 Bedienelement, 2-fach Busch-axcent® - mit beiliegendem Busankoppler ETS-Applikation für PowerTool 1.0 24.01.2011 Info
878 6116-0-0178 6126/01-866 Bedienelement, 2-fach pur edelstahl - mit beiliegendem Busankoppler ETS-Applikation für PowerTool 1.0 24.01.2011 Info
879 6117-0-0248 6127/01-896 Bedienelement, 4-fach Busch-axcent® - mit beiliegendem Busankoppler ETS-Applikation für PowerTool 1.0 24.01.2011 Info
880 6117-0-0204 6127/01-866 Bedienelement, 4-fach pur edelstahl - mit beiliegendem Busankoppler ETS-Applikation für PowerTool 1.0 24.01.2011 Info
881 6198-0-0110 6197/41 DALI-Gateway - 1-fach Gateway Zusatzsoftware 0.2.14 27.08.2010
882 6138-0-0004 6138/11-83 Raumtemperaturregler Fan Coil mit Display, AP - mit integriertem Busankoppler ETS3 Applikation 1.0 21.10.2009
883 6138-0-0002 6138/11-84 Raumtemperaturregler Fan Coil mit Display, AP - mit integriertem Busankoppler ETS3 Applikation 1.0 21.10.2009
884 6136-0-0188 6186/31 IP-Router ETS2 Applikation 1.0 04.11.2008
885 6136-0-0188 6186/31 IP-Router ETS3 Applikation 1.0 04.11.2008
886 6136-0-0187 6186/11 Telefon-Gateway - analog ETS2 Applikation 2.0 01.10.2008
887 6136-0-0187 6186/11 Telefon-Gateway - analog ETS3 Applikation 2.0 01.10.2008
888 6136-0-0172 6128/10-84-101 Wochenschaltuhr Tastsensor 2-fach ETS2 Applikation 1.0 11.06.2008
889 6136-0-0172 6128/10-84-101 Wochenschaltuhr Tastsensor 2-fach ETS4/ETS5 Applikation 1.0 11.06.2008
890 6136-0-0169 6128/10-81-101 Wochenschaltuhr Tastsensor 2-fach ETS2 Applikation 1.0 11.06.2008
891 6136-0-0169 6128/10-81-101 Wochenschaltuhr Tastsensor 2-fach ETS4/ETS5 Applikation 1.0 11.06.2008
892 6136-0-0170 6128/10-82-101 Wochenschaltuhr Tastsensor 2-fach ETS2 Applikation 1.0 11.06.2008
893 6136-0-0170 6128/10-82-101 Wochenschaltuhr Tastsensor 2-fach ETS4/ETS5 Applikation 1.0 11.06.2008
894 6136-0-0179 6128/10-866-101 Wochenschaltuhr Tastsensor 2-fach ETS2 Applikation 1.0 11.06.2008
895 6136-0-0179 6128/10-866-101 Wochenschaltuhr Tastsensor 2-fach ETS4/ETS5 Applikation 1.0 11.06.2008
896 6136-0-0171 6128/10-83-101 Wochenschaltuhr Tastsensor 2-fach ETS2 Applikation 1.0 11.06.2008
897 6136-0-0171 6128/10-83-101 Wochenschaltuhr Tastsensor 2-fach ETS4/ETS5 Applikation 1.0 11.06.2008
898 6136-0-0191 6128/10-803-101 Wochenschaltuhr Tastsensor 2-fach ETS2 Applikation 1.0 11.06.2008
899 6136-0-0191 6128/10-803-101 Wochenschaltuhr Tastsensor 2-fach ETS4/ETS5 Applikation 1.0 11.06.2008
900 6136-0-0194 6128/10-884-101 Wochenschaltuhr Tastsensor 2-fach future® linear ETS2 Applikation 1.0 11.06.2008
901 6136-0-0194 6128/10-884-101 Wochenschaltuhr Tastsensor 2-fach future® linear ETS4/ETS5 Applikation 1.0 11.06.2008
902 6136-0-0193 6128/10-885-101 Wochenschaltuhr Tastsensor 2-fach future® linear ETS2 Applikation 1.0 11.06.2008
903 6136-0-0193 6128/10-885-101 Wochenschaltuhr Tastsensor 2-fach future® linear ETS4/ETS5 Applikation 1.0 11.06.2008
904 6730-0-0014 6730-81 LED-Anzeige WaveLINE ETS2 Applikation 1.0 10.10.2007
905 6730-0-0014 6730-81 LED-Anzeige WaveLINE ETS2 Applikation 1.0 10.10.2007
906 6730-0-0014 6730-81 LED-Anzeige WaveLINE ETS4/ETS5 Applikation 1.0 10.10.2007
907 6730-0-0014 6730-81 LED-Anzeige WaveLINE ETS4/ETS5 Applikation 1.0 10.10.2007
908 6730-0-0015 6730-82 LED-Anzeige WaveLINE ETS2 Applikation 1.0 10.10.2007
909 6730-0-0015 6730-82 LED-Anzeige WaveLINE ETS2 Applikation 1.0 10.10.2007
910 6730-0-0015 6730-82 LED-Anzeige WaveLINE ETS4/ETS5 Applikation 1.0 10.10.2007
911 6730-0-0015 6730-82 LED-Anzeige WaveLINE ETS4/ETS5 Applikation 1.0 10.10.2007
912 6730-0-0017 6730-84 LED-Anzeige WaveLINE ETS2 Applikation 1.0 10.10.2007
913 6730-0-0017 6730-84 LED-Anzeige WaveLINE ETS2 Applikation 1.0 10.10.2007
914 6730-0-0017 6730-84 LED-Anzeige WaveLINE ETS4/ETS5 Applikation 1.0 10.10.2007
915 6730-0-0017 6730-84 LED-Anzeige WaveLINE ETS4/ETS5 Applikation 1.0 10.10.2007
916 6730-0-0023 6730-866 LED-Anzeige WaveLINE ETS2 Applikation 1.0 10.10.2007
917 6730-0-0023 6730-866 LED-Anzeige WaveLINE ETS2 Applikation 1.0 10.10.2007
918 6730-0-0023 6730-866 LED-Anzeige WaveLINE ETS4/ETS5 Applikation 1.0 10.10.2007
919 6730-0-0023 6730-866 LED-Anzeige WaveLINE ETS4/ETS5 Applikation 1.0 10.10.2007
920 6730-0-0025 6730-803 LED-Anzeige WaveLINE ETS2 Applikation 1.0 10.10.2007
921 6730-0-0025 6730-803 LED-Anzeige WaveLINE ETS2 Applikation 1.0 10.10.2007
922 6730-0-0025 6730-803 LED-Anzeige WaveLINE ETS4/ETS5 Applikation 1.0 10.10.2007
923 6730-0-0025 6730-803 LED-Anzeige WaveLINE ETS4/ETS5 Applikation 1.0 10.10.2007
924 6730-0-0065 6730-896 LED-Anzeige WaveLINE ETS2 Applikation 1.0 10.10.2007
925 6730-0-0065 6730-896 LED-Anzeige WaveLINE ETS2 Applikation 1.0 10.10.2007
926 6730-0-0065 6730-896 LED-Anzeige WaveLINE ETS4/ETS5 Applikation 1.0 10.10.2007
927 6730-0-0065 6730-896 LED-Anzeige WaveLINE ETS4/ETS5 Applikation 1.0 10.10.2007
928 6730-0-0007 6730-20 LED-Anzeige WaveLINE ETS2 Applikation 1.0 10.10.2007
929 6730-0-0007 6730-20 LED-Anzeige WaveLINE ETS2 Applikation 1.0 10.10.2007
930 6730-0-0007 6730-20 LED-Anzeige WaveLINE ETS4/ETS5 Applikation 1.0 10.10.2007
931 6730-0-0007 6730-20 LED-Anzeige WaveLINE ETS4/ETS5 Applikation 1.0 10.10.2007
932 6730-0-0008 6730-21 LED-Anzeige WaveLINE ETS2 Applikation 1.0 10.10.2007
933 6730-0-0008 6730-21 LED-Anzeige WaveLINE ETS2 Applikation 1.0 10.10.2007
934 6730-0-0008 6730-21 LED-Anzeige WaveLINE ETS4/ETS5 Applikation 1.0 10.10.2007
935 6730-0-0008 6730-21 LED-Anzeige WaveLINE ETS4/ETS5 Applikation 1.0 10.10.2007
936 6730-0-0009 6730-22G LED-Anzeige WaveLINE ETS2 Applikation 1.0 10.10.2007
937 6730-0-0009 6730-22G LED-Anzeige WaveLINE ETS2 Applikation 1.0 10.10.2007
938 6730-0-0009 6730-22G LED-Anzeige WaveLINE ETS4/ETS5 Applikation 1.0 10.10.2007
939 6730-0-0009 6730-22G LED-Anzeige WaveLINE ETS4/ETS5 Applikation 1.0 10.10.2007
940 6730-0-0010 6730-24 LED-Anzeige WaveLINE ETS2 Applikation 1.0 10.10.2007
941 6730-0-0010 6730-24 LED-Anzeige WaveLINE ETS2 Applikation 1.0 10.10.2007
942 6730-0-0010 6730-24 LED-Anzeige WaveLINE ETS4/ETS5 Applikation 1.0 10.10.2007
943 6730-0-0010 6730-24 LED-Anzeige WaveLINE ETS4/ETS5 Applikation 1.0 10.10.2007
944 6730-0-0011 6730-24G LED-Anzeige WaveLINE ETS2 Applikation 1.0 10.10.2007
945 6730-0-0011 6730-24G LED-Anzeige WaveLINE ETS2 Applikation 1.0 10.10.2007
946 6730-0-0011 6730-24G LED-Anzeige WaveLINE ETS4/ETS5 Applikation 1.0 10.10.2007
947 6730-0-0011 6730-24G LED-Anzeige WaveLINE ETS4/ETS5 Applikation 1.0 10.10.2007
948 6730-0-0005 6730-260 LED-Anzeige WaveLINE ETS2 Applikation 1.0 10.10.2007
949 6730-0-0005 6730-260 LED-Anzeige WaveLINE ETS2 Applikation 1.0 10.10.2007
950 6730-0-0005 6730-260 LED-Anzeige WaveLINE ETS4/ETS5 Applikation 1.0 10.10.2007
951 6730-0-0005 6730-260 LED-Anzeige WaveLINE ETS4/ETS5 Applikation 1.0 10.10.2007
952 6730-0-0006 6730-266 LED-Anzeige WaveLINE ETS2 Applikation 1.0 10.10.2007
953 6730-0-0006 6730-266 LED-Anzeige WaveLINE ETS2 Applikation 1.0 10.10.2007
954 6730-0-0006 6730-266 LED-Anzeige WaveLINE ETS4/ETS5 Applikation 1.0 10.10.2007
955 6730-0-0006 6730-266 LED-Anzeige WaveLINE ETS4/ETS5 Applikation 1.0 10.10.2007
956 6730-0-0016 6730-83 LED-Anzeige WaveLINE ETS2 Applikation 1.0 10.10.2007
957 6730-0-0016 6730-83 LED-Anzeige WaveLINE ETS2 Applikation 1.0 10.10.2007
958 6730-0-0016 6730-83 LED-Anzeige WaveLINE ETS4/ETS5 Applikation 1.0 10.10.2007
959 6730-0-0016 6730-83 LED-Anzeige WaveLINE ETS4/ETS5 Applikation 1.0 10.10.2007
960 6730-0-0026 6730-884 LED-Anzeige WaveLINE ETS2 Applikation 1.0 10.10.2007
961 6730-0-0026 6730-884 LED-Anzeige WaveLINE ETS2 Applikation 1.0 10.10.2007
962 6730-0-0026 6730-884 LED-Anzeige WaveLINE ETS4/ETS5 Applikation 1.0 10.10.2007
963 6730-0-0026 6730-884 LED-Anzeige WaveLINE ETS4/ETS5 Applikation 1.0 10.10.2007
964 6730-0-0027 6730-885 LED-Anzeige WaveLINE ETS2 Applikation 1.0 10.10.2007
965 6730-0-0027 6730-885 LED-Anzeige WaveLINE ETS2 Applikation 1.0 10.10.2007
966 6730-0-0027 6730-885 LED-Anzeige WaveLINE ETS4/ETS5 Applikation 1.0 10.10.2007
967 6730-0-0027 6730-885 LED-Anzeige WaveLINE ETS4/ETS5 Applikation 1.0 10.10.2007
968 6730-0-0091 6730-914 LED-Anzeige WaveLINE ETS2 Applikation 1.0 10.10.2007
969 6730-0-0091 6730-914 LED-Anzeige WaveLINE ETS4/ETS5 Applikation 1.0 10.10.2007
970 6730-0-0002 6730-214 LED-Anzeige WaveLINE ETS2 Applikation 1.0 10.10.2007
971 6730-0-0002 6730-214 LED-Anzeige WaveLINE ETS2 Applikation 1.0 10.10.2007
972 6730-0-0002 6730-214 LED-Anzeige WaveLINE ETS4/ETS5 Applikation 1.0 10.10.2007
973 6730-0-0002 6730-214 LED-Anzeige WaveLINE ETS4/ETS5 Applikation 1.0 10.10.2007
974 6730-0-0001 6730-212 LED-Anzeige WaveLINE Busch-Duro 2000® SI ETS2 Applikation 1.0 10.10.2007
975 6730-0-0001 6730-212 LED-Anzeige WaveLINE Busch-Duro 2000® SI ETS2 Applikation 1.0 10.10.2007
976 6730-0-0001 6730-212 LED-Anzeige WaveLINE Busch-Duro 2000® SI ETS4/ETS5 Applikation 1.0 10.10.2007
977 6730-0-0001 6730-212 LED-Anzeige WaveLINE Busch-Duro 2000® SI ETS4/ETS5 Applikation 1.0 10.10.2007
978 6146-0-0022 6146/10 Helligkeits-, Temperaturschalter - 3-fach ETS2 Applikation 1.2 07.08.2007
979 6136-0-0172 6128/10-84-101 Wochenschaltuhr Tastsensor 2-fach ETS2 Applikation 1.0 08.03.2007
980 6136-0-0172 6128/10-84-101 Wochenschaltuhr Tastsensor 2-fach Zusatzsoftware: Power-Projekt Plugin 1.0 08.03.2007
981 6136-0-0172 6128/10-84-101 Wochenschaltuhr Tastsensor 2-fach ETS4/ETS5 Applikation 1.0 08.03.2007
982 6136-0-0169 6128/10-81-101 Wochenschaltuhr Tastsensor 2-fach ETS2 Applikation 1.0 08.03.2007
983 6136-0-0169 6128/10-81-101 Wochenschaltuhr Tastsensor 2-fach Zusatzsoftware: Power-Projekt Plugin 1.0 08.03.2007
984 6136-0-0169 6128/10-81-101 Wochenschaltuhr Tastsensor 2-fach ETS4/ETS5 Applikation 1.0 08.03.2007
985 6136-0-0170 6128/10-82-101 Wochenschaltuhr Tastsensor 2-fach ETS2 Applikation 1.0 08.03.2007
986 6136-0-0170 6128/10-82-101 Wochenschaltuhr Tastsensor 2-fach Zusatzsoftware: Power-Projekt Plugin 1.0 08.03.2007
987 6136-0-0170 6128/10-82-101 Wochenschaltuhr Tastsensor 2-fach ETS4/ETS5 Applikation 1.0 08.03.2007
988 6136-0-0179 6128/10-866-101 Wochenschaltuhr Tastsensor 2-fach ETS2 Applikation 1.0 08.03.2007
989 6136-0-0179 6128/10-866-101 Wochenschaltuhr Tastsensor 2-fach Zusatzsoftware: Power-Projekt Plugin 1.0 08.03.2007
990 6136-0-0179 6128/10-866-101 Wochenschaltuhr Tastsensor 2-fach ETS4/ETS5 Applikation 1.0 08.03.2007
991 6136-0-0171 6128/10-83-101 Wochenschaltuhr Tastsensor 2-fach ETS2 Applikation 1.0 08.03.2007
992 6136-0-0171 6128/10-83-101 Wochenschaltuhr Tastsensor 2-fach Zusatzsoftware: Power-Projekt Plugin 1.0 08.03.2007
993 6136-0-0171 6128/10-83-101 Wochenschaltuhr Tastsensor 2-fach ETS4/ETS5 Applikation 1.0 08.03.2007
994 6136-0-0191 6128/10-803-101 Wochenschaltuhr Tastsensor 2-fach ETS2 Applikation 1.0 08.03.2007
995 6136-0-0191 6128/10-803-101 Wochenschaltuhr Tastsensor 2-fach Zusatzsoftware: Power-Projekt Plugin 1.0 08.03.2007
996 6136-0-0191 6128/10-803-101 Wochenschaltuhr Tastsensor 2-fach ETS4/ETS5 Applikation 1.0 08.03.2007
997 6136-0-0194 6128/10-884-101 Wochenschaltuhr Tastsensor 2-fach future® linear ETS2 Applikation 1.0 08.03.2007
998 6136-0-0194 6128/10-884-101 Wochenschaltuhr Tastsensor 2-fach future® linear Zusatzsoftware: Power-Projekt Plugin 1.0 08.03.2007
999 6136-0-0194 6128/10-884-101 Wochenschaltuhr Tastsensor 2-fach future® linear ETS4/ETS5 Applikation 1.0 08.03.2007
1000 6136-0-0193 6128/10-885-101 Wochenschaltuhr Tastsensor 2-fach future® linear ETS2 Applikation 1.0 08.03.2007
1001 6136-0-0193 6128/10-885-101 Wochenschaltuhr Tastsensor 2-fach future® linear Zusatzsoftware: Power-Projekt Plugin 1.0 08.03.2007
1002 6136-0-0193 6128/10-885-101 Wochenschaltuhr Tastsensor 2-fach future® linear ETS4/ETS5 Applikation 1.0 08.03.2007